<?xml version="1.0" encoding="utf-8"?>
<gpx xmlns:xsi="http://www.w3.org/2001/XMLSchema-instance" xmlns:xsd="http://www.w3.org/2001/XMLSchema" version="1.1" creator="Shapelink.com" xmlns="http://www.topografix.com/GPX/1/1" xmlns:gpxtpx="http://www.garmin.com/xmlschemas/TrackPointExtension/v1">
  <metadata>
    <name>Cycling 34.50 km, 2020-07-05</name>
    <desc></desc>
    <author><name>Marian Moron</name></author> 
    <time>2020-07-05T12:45:21Z</time>
  </metadata>
  <trk>
    <name>Cycling 34.50 km, 2020-07-05</name>
    <trkseg>
      <trkpt lat="51.22807397224" lon="4.467016677495">
        <ele>23.8</ele>
        <time>2020-07-05T12:45:21Z</time>
      </trkpt>
      <trkpt lat="51.228467837721" lon="4.467371567141">
        <ele>26</ele>
        <time>2020-07-05T12:45:31Z</time>
      </trkpt>
      <trkpt lat="51.22900101038" lon="4.467649175669">
        <ele>20</ele>
        <time>2020-07-05T12:45:42Z</time>
      </trkpt>
      <trkpt lat="51.229565196069" lon="4.467760403482">
        <ele>13</ele>
        <time>2020-07-05T12:45:52Z</time>
      </trkpt>
      <trkpt lat="51.229815982517" lon="4.467691168988">
        <ele>12</ele>
        <time>2020-07-05T12:45:57Z</time>
      </trkpt>
      <trkpt lat="51.230360135465" lon="4.467538115494">
        <ele>8.8</ele>
        <time>2020-07-05T12:46:12Z</time>
      </trkpt>
      <trkpt lat="51.230933625063" lon="4.467313480574">
        <ele>4.4</ele>
        <time>2020-07-05T12:46:23Z</time>
      </trkpt>
      <trkpt lat="51.231488087748" lon="4.46723251142">
        <ele>0</ele>
        <time>2020-07-05T12:46:33Z</time>
      </trkpt>
      <trkpt lat="51.231536451311" lon="4.467240641863">
        <ele>0</ele>
        <time>2020-07-05T12:46:34Z</time>
      </trkpt>
      <trkpt lat="51.231842139204" lon="4.467232092325">
        <ele>0</ele>
        <time>2020-07-05T12:46:42Z</time>
      </trkpt>
      <trkpt lat="51.23197909945" lon="4.467088761835">
        <ele>0</ele>
        <time>2020-07-05T12:46:45Z</time>
      </trkpt>
      <trkpt lat="51.232339269693" lon="4.466381832389">
        <ele>0</ele>
        <time>2020-07-05T12:46:58Z</time>
      </trkpt>
      <trkpt lat="51.232663146309" lon="4.465634502185">
        <ele>0</ele>
        <time>2020-07-05T12:47:10Z</time>
      </trkpt>
      <trkpt lat="51.232991046237" lon="4.464934948811">
        <ele>0</ele>
        <time>2020-07-05T12:47:19Z</time>
      </trkpt>
      <trkpt lat="51.233310899541" lon="4.464223912234">
        <ele>0</ele>
        <time>2020-07-05T12:47:29Z</time>
      </trkpt>
      <trkpt lat="51.233433023824" lon="4.463979915125">
        <ele>0</ele>
        <time>2020-07-05T12:47:36Z</time>
      </trkpt>
      <trkpt lat="51.233460348818" lon="4.464025512661">
        <ele>0</ele>
        <time>2020-07-05T12:47:58Z</time>
      </trkpt>
      <trkpt lat="51.233708536877" lon="4.465233512089">
        <ele>0</ele>
        <time>2020-07-05T12:49:05Z</time>
      </trkpt>
      <trkpt lat="51.233838875422" lon="4.466083855844">
        <ele>0</ele>
        <time>2020-07-05T12:49:14Z</time>
      </trkpt>
      <trkpt lat="51.233979272247" lon="4.466918693084">
        <ele>0</ele>
        <time>2020-07-05T12:49:22Z</time>
      </trkpt>
      <trkpt lat="51.234125368764" lon="4.467822513361">
        <ele>1.6</ele>
        <time>2020-07-05T12:49:31Z</time>
      </trkpt>
      <trkpt lat="51.234275572412" lon="4.468711497675">
        <ele>6.8</ele>
        <time>2020-07-05T12:49:40Z</time>
      </trkpt>
      <trkpt lat="51.234413789943" lon="4.469634680141">
        <ele>11.8</ele>
        <time>2020-07-05T12:49:49Z</time>
      </trkpt>
      <trkpt lat="51.2345230061" lon="4.470480832946">
        <ele>12.8</ele>
        <time>2020-07-05T12:49:57Z</time>
      </trkpt>
      <trkpt lat="51.23465376374" lon="4.471340145334">
        <ele>14</ele>
        <time>2020-07-05T12:50:05Z</time>
      </trkpt>
      <trkpt lat="51.234820395912" lon="4.472221250662">
        <ele>15.2</ele>
        <time>2020-07-05T12:50:13Z</time>
      </trkpt>
      <trkpt lat="51.234969342275" lon="4.473153150304">
        <ele>14.2</ele>
        <time>2020-07-05T12:50:21Z</time>
      </trkpt>
      <trkpt lat="51.235140333035" lon="4.47406040716">
        <ele>14.6</ele>
        <time>2020-07-05T12:50:29Z</time>
      </trkpt>
      <trkpt lat="51.235295649642" lon="4.474955342623">
        <ele>16.8</ele>
        <time>2020-07-05T12:50:37Z</time>
      </trkpt>
      <trkpt lat="51.235497904889" lon="4.475872909216">
        <ele>17.6</ele>
        <time>2020-07-05T12:50:45Z</time>
      </trkpt>
      <trkpt lat="51.235674762979" lon="4.47677446638">
        <ele>17.2</ele>
        <time>2020-07-05T12:50:53Z</time>
      </trkpt>
      <trkpt lat="51.235878443149" lon="4.477687674385">
        <ele>13</ele>
        <time>2020-07-05T12:51:01Z</time>
      </trkpt>
      <trkpt lat="51.23606862846" lon="4.478578335079">
        <ele>8</ele>
        <time>2020-07-05T12:51:09Z</time>
      </trkpt>
      <trkpt lat="51.236114980367" lon="4.479462709348">
        <ele>4.8</ele>
        <time>2020-07-05T12:51:17Z</time>
      </trkpt>
      <trkpt lat="51.236101820784" lon="4.48033928845">
        <ele>3</ele>
        <time>2020-07-05T12:51:26Z</time>
      </trkpt>
      <trkpt lat="51.236069215193" lon="4.481239001596">
        <ele>4.8</ele>
        <time>2020-07-05T12:51:35Z</time>
      </trkpt>
      <trkpt lat="51.236030406996" lon="4.482190766341">
        <ele>7.6</ele>
        <time>2020-07-05T12:51:44Z</time>
      </trkpt>
      <trkpt lat="51.236044404769" lon="4.483119648499">
        <ele>5.2</ele>
        <time>2020-07-05T12:51:53Z</time>
      </trkpt>
      <trkpt lat="51.236057815809" lon="4.483228026466">
        <ele>4.6</ele>
        <time>2020-07-05T12:51:54Z</time>
      </trkpt>
      <trkpt lat="51.236056642343" lon="4.48395272554">
        <ele>2.2</ele>
        <time>2020-07-05T12:52:01Z</time>
      </trkpt>
      <trkpt lat="51.236040800552" lon="4.484825197511">
        <ele>2.2</ele>
        <time>2020-07-05T12:52:09Z</time>
      </trkpt>
      <trkpt lat="51.236071226849" lon="4.485425593008">
        <ele>3.4</ele>
        <time>2020-07-05T12:52:15Z</time>
      </trkpt>
      <trkpt lat="51.236089415572" lon="4.485572611534">
        <ele>3.8</ele>
        <time>2020-07-05T12:52:17Z</time>
      </trkpt>
      <trkpt lat="51.236094277074" lon="4.486056750078">
        <ele>4.4</ele>
        <time>2020-07-05T12:52:23Z</time>
      </trkpt>
      <trkpt lat="51.236116656747" lon="4.487011616126">
        <ele>3.6</ele>
        <time>2020-07-05T12:52:33Z</time>
      </trkpt>
      <trkpt lat="51.236140880438" lon="4.487965560165">
        <ele>2.8</ele>
        <time>2020-07-05T12:52:42Z</time>
      </trkpt>
      <trkpt lat="51.236148507967" lon="4.488076033607">
        <ele>2.8</ele>
        <time>2020-07-05T12:52:43Z</time>
      </trkpt>
      <trkpt lat="51.236172144925" lon="4.488725630857">
        <ele>2.4</ele>
        <time>2020-07-05T12:52:49Z</time>
      </trkpt>
      <trkpt lat="51.236149262338" lon="4.489632049523">
        <ele>2.2</ele>
        <time>2020-07-05T12:52:59Z</time>
      </trkpt>
      <trkpt lat="51.236065527157" lon="4.48995416594">
        <ele>2.2</ele>
        <time>2020-07-05T12:53:05Z</time>
      </trkpt>
      <trkpt lat="51.235924711237" lon="4.490870475248">
        <ele>2.6</ele>
        <time>2020-07-05T12:53:16Z</time>
      </trkpt>
      <trkpt lat="51.235722036895" lon="4.491666252834">
        <ele>3</ele>
        <time>2020-07-05T12:53:24Z</time>
      </trkpt>
      <trkpt lat="51.235469741705" lon="4.492522128643">
        <ele>1.4</ele>
        <time>2020-07-05T12:53:32Z</time>
      </trkpt>
      <trkpt lat="51.235219961085" lon="4.493390493483">
        <ele>1.2</ele>
        <time>2020-07-05T12:53:40Z</time>
      </trkpt>
      <trkpt lat="51.234972611216" lon="4.494206974362">
        <ele>0.6</ele>
        <time>2020-07-05T12:53:47Z</time>
      </trkpt>
      <trkpt lat="51.23474177369" lon="4.495020353938">
        <ele>0.4</ele>
        <time>2020-07-05T12:53:54Z</time>
      </trkpt>
      <trkpt lat="51.234506996671" lon="4.495809090728">
        <ele>0.4</ele>
        <time>2020-07-05T12:54:01Z</time>
      </trkpt>
      <trkpt lat="51.23425394711" lon="4.496698075042">
        <ele>1.2</ele>
        <time>2020-07-05T12:54:09Z</time>
      </trkpt>
      <trkpt lat="51.234009279449" lon="4.497582197854">
        <ele>1.6</ele>
        <time>2020-07-05T12:54:17Z</time>
      </trkpt>
      <trkpt lat="51.233752038938" lon="4.498359451441">
        <ele>0</ele>
        <time>2020-07-05T12:54:25Z</time>
      </trkpt>
      <trkpt lat="51.233414248368" lon="4.499114828269">
        <ele>1.8</ele>
        <time>2020-07-05T12:54:34Z</time>
      </trkpt>
      <trkpt lat="51.233015437566" lon="4.499795941463">
        <ele>2</ele>
        <time>2020-07-05T12:54:44Z</time>
      </trkpt>
      <trkpt lat="51.232803124039" lon="4.500164074511">
        <ele>3</ele>
        <time>2020-07-05T12:54:49Z</time>
      </trkpt>
      <trkpt lat="51.232440858321" lon="4.500863879342">
        <ele>3.8</ele>
        <time>2020-07-05T12:54:59Z</time>
      </trkpt>
      <trkpt lat="51.232080352802" lon="4.501544824898">
        <ele>2.8</ele>
        <time>2020-07-05T12:55:08Z</time>
      </trkpt>
      <trkpt lat="51.231841384833" lon="4.501967188839">
        <ele>2.2</ele>
        <time>2020-07-05T12:55:14Z</time>
      </trkpt>
      <trkpt lat="51.231663688553" lon="4.50215737415">
        <ele>2.2</ele>
        <time>2020-07-05T12:55:19Z</time>
      </trkpt>
      <trkpt lat="51.231655139015" lon="4.502524920465">
        <ele>7.2</ele>
        <time>2020-07-05T12:55:35Z</time>
      </trkpt>
      <trkpt lat="51.231487752472" lon="4.503260851285">
        <ele>7.2</ele>
        <time>2020-07-05T12:56:21Z</time>
      </trkpt>
      <trkpt lat="51.231335620987" lon="4.503773572108">
        <ele>7.2</ele>
        <time>2020-07-05T12:56:28Z</time>
      </trkpt>
      <trkpt lat="51.231252975453" lon="4.504032656637">
        <ele>8</ele>
        <time>2020-07-05T12:56:31Z</time>
      </trkpt>
      <trkpt lat="51.231103358538" lon="4.504863135289">
        <ele>7.4</ele>
        <time>2020-07-05T12:56:39Z</time>
      </trkpt>
      <trkpt lat="51.230922728593" lon="4.505674922304">
        <ele>4.8</ele>
        <time>2020-07-05T12:56:47Z</time>
      </trkpt>
      <trkpt lat="51.230665488082" lon="4.506477070134">
        <ele>3.2</ele>
        <time>2020-07-05T12:56:56Z</time>
      </trkpt>
      <trkpt lat="51.230458287514" lon="4.507317355609">
        <ele>5.4</ele>
        <time>2020-07-05T12:57:05Z</time>
      </trkpt>
      <trkpt lat="51.230318896517" lon="4.508085556744">
        <ele>7.6</ele>
        <time>2020-07-05T12:57:13Z</time>
      </trkpt>
      <trkpt lat="51.230141535513" lon="4.508902540537">
        <ele>7</ele>
        <time>2020-07-05T12:57:21Z</time>
      </trkpt>
      <trkpt lat="51.229979094291" lon="4.509726648945">
        <ele>6.8</ele>
        <time>2020-07-05T12:57:29Z</time>
      </trkpt>
      <trkpt lat="51.229809444635" lon="4.510548242783">
        <ele>6.8</ele>
        <time>2020-07-05T12:57:38Z</time>
      </trkpt>
      <trkpt lat="51.229758063588" lon="4.51092651793">
        <ele>5</ele>
        <time>2020-07-05T12:57:42Z</time>
      </trkpt>
      <trkpt lat="51.22973861758" lon="4.511106896418">
        <ele>4.6</ele>
        <time>2020-07-05T12:57:44Z</time>
      </trkpt>
      <trkpt lat="51.22969922265" lon="4.511266403975">
        <ele>4.6</ele>
        <time>2020-07-05T12:57:46Z</time>
      </trkpt>
      <trkpt lat="51.229555389246" lon="4.511795637141">
        <ele>6.2</ele>
        <time>2020-07-05T12:57:53Z</time>
      </trkpt>
      <trkpt lat="51.229527980433" lon="4.512060086086">
        <ele>7</ele>
        <time>2020-07-05T12:57:56Z</time>
      </trkpt>
      <trkpt lat="51.22939160692" lon="4.512512708686">
        <ele>7.2</ele>
        <time>2020-07-05T12:58:02Z</time>
      </trkpt>
      <trkpt lat="51.229179209574" lon="4.513403872294">
        <ele>4.2</ele>
        <time>2020-07-05T12:58:12Z</time>
      </trkpt>
      <trkpt lat="51.228966560771" lon="4.514216246042">
        <ele>3.2</ele>
        <time>2020-07-05T12:58:21Z</time>
      </trkpt>
      <trkpt lat="51.228801102065" lon="4.515062817942">
        <ele>0</ele>
        <time>2020-07-05T12:58:30Z</time>
      </trkpt>
      <trkpt lat="51.228679899791" lon="4.515657765204">
        <ele>0</ele>
        <time>2020-07-05T12:58:36Z</time>
      </trkpt>
      <trkpt lat="51.228657268661" lon="4.515872509482">
        <ele>0.4</ele>
        <time>2020-07-05T12:58:38Z</time>
      </trkpt>
      <trkpt lat="51.228482506046" lon="4.516748082756">
        <ele>4.6</ele>
        <time>2020-07-05T12:58:47Z</time>
      </trkpt>
      <trkpt lat="51.228164915855" lon="4.517556852287">
        <ele>6.8</ele>
        <time>2020-07-05T12:58:57Z</time>
      </trkpt>
      <trkpt lat="51.228065841797" lon="4.517787354537">
        <ele>5.2</ele>
        <time>2020-07-05T12:59:00Z</time>
      </trkpt>
      <trkpt lat="51.22793315632" lon="4.518164456218">
        <ele>1.6</ele>
        <time>2020-07-05T12:59:05Z</time>
      </trkpt>
      <trkpt lat="51.227608106238" lon="4.518950426981">
        <ele>1.4</ele>
        <time>2020-07-05T12:59:15Z</time>
      </trkpt>
      <trkpt lat="51.227505260325" lon="4.51915083821">
        <ele>0.8</ele>
        <time>2020-07-05T12:59:18Z</time>
      </trkpt>
      <trkpt lat="51.2274151549" lon="4.519206326388">
        <ele>0.4</ele>
        <time>2020-07-05T12:59:20Z</time>
      </trkpt>
      <trkpt lat="51.227167721212" lon="4.519271286113">
        <ele>2.6</ele>
        <time>2020-07-05T12:59:26Z</time>
      </trkpt>
      <trkpt lat="51.227001675773" lon="4.519467171116">
        <ele>23</ele>
        <time>2020-07-05T12:59:50Z</time>
      </trkpt>
      <trkpt lat="51.227272997876" lon="4.52028826204">
        <ele>26.4</ele>
        <time>2020-07-05T13:00:03Z</time>
      </trkpt>
      <trkpt lat="51.227400402756" lon="4.521150508093">
        <ele>23.8</ele>
        <time>2020-07-05T13:00:12Z</time>
      </trkpt>
      <trkpt lat="51.227564687996" lon="4.522019375847">
        <ele>26.2</ele>
        <time>2020-07-05T13:00:22Z</time>
      </trkpt>
      <trkpt lat="51.227629060988" lon="4.522397315718">
        <ele>25.8</ele>
        <time>2020-07-05T13:00:27Z</time>
      </trkpt>
      <trkpt lat="51.227653955231" lon="4.523036435593">
        <ele>25.8</ele>
        <time>2020-07-05T13:00:38Z</time>
      </trkpt>
      <trkpt lat="51.227635934146" lon="4.523751411663">
        <ele>15.8</ele>
        <time>2020-07-05T13:00:47Z</time>
      </trkpt>
      <trkpt lat="51.227890576268" lon="4.524621033788">
        <ele>11.6</ele>
        <time>2020-07-05T13:00:56Z</time>
      </trkpt>
      <trkpt lat="51.228111942247" lon="4.525528542101">
        <ele>10.8</ele>
        <time>2020-07-05T13:01:04Z</time>
      </trkpt>
      <trkpt lat="51.228247896665" lon="4.526400008244">
        <ele>13.4</ele>
        <time>2020-07-05T13:01:12Z</time>
      </trkpt>
      <trkpt lat="51.228338085909" lon="4.527318832122">
        <ele>9.4</ele>
        <time>2020-07-05T13:01:20Z</time>
      </trkpt>
      <trkpt lat="51.228443781668" lon="4.528231537213">
        <ele>8.8</ele>
        <time>2020-07-05T13:01:28Z</time>
      </trkpt>
      <trkpt lat="51.228430286809" lon="4.529180033017">
        <ele>11.8</ele>
        <time>2020-07-05T13:01:36Z</time>
      </trkpt>
      <trkpt lat="51.228392400621" lon="4.530041692337">
        <ele>15.6</ele>
        <time>2020-07-05T13:01:43Z</time>
      </trkpt>
      <trkpt lat="51.228343701782" lon="4.530610236614">
        <ele>13.8</ele>
        <time>2020-07-05T13:01:48Z</time>
      </trkpt>
      <trkpt lat="51.228285363758" lon="4.530797236803">
        <ele>12</ele>
        <time>2020-07-05T13:01:50Z</time>
      </trkpt>
      <trkpt lat="51.228166005502" lon="4.531024470112">
        <ele>10.2</ele>
        <time>2020-07-05T13:01:53Z</time>
      </trkpt>
      <trkpt lat="51.2280689431" lon="4.531253212163">
        <ele>10</ele>
        <time>2020-07-05T13:01:57Z</time>
      </trkpt>
      <trkpt lat="51.227989398869" lon="4.531555128201">
        <ele>10</ele>
        <time>2020-07-05T13:02:04Z</time>
      </trkpt>
      <trkpt lat="51.227835339547" lon="4.532155607517">
        <ele>10.4</ele>
        <time>2020-07-05T13:02:21Z</time>
      </trkpt>
      <trkpt lat="51.22774875452" lon="4.533073257929">
        <ele>11.4</ele>
        <time>2020-07-05T13:02:34Z</time>
      </trkpt>
      <trkpt lat="51.227926534619" lon="4.533962326062">
        <ele>12</ele>
        <time>2020-07-05T13:02:45Z</time>
      </trkpt>
      <trkpt lat="51.228314197494" lon="4.534627848922">
        <ele>10.6</ele>
        <time>2020-07-05T13:02:54Z</time>
      </trkpt>
      <trkpt lat="51.228597254257" lon="4.534933369177">
        <ele>9</ele>
        <time>2020-07-05T13:02:59Z</time>
      </trkpt>
      <trkpt lat="51.228686102397" lon="4.535119698814">
        <ele>8.4</ele>
        <time>2020-07-05T13:03:01Z</time>
      </trkpt>
      <trkpt lat="51.228737064349" lon="4.535357493317">
        <ele>7.8</ele>
        <time>2020-07-05T13:03:03Z</time>
      </trkpt>
      <trkpt lat="51.228738070177" lon="4.535610039964">
        <ele>6.8</ele>
        <time>2020-07-05T13:03:05Z</time>
      </trkpt>
      <trkpt lat="51.228576467145" lon="4.536547723117">
        <ele>3.8</ele>
        <time>2020-07-05T13:03:13Z</time>
      </trkpt>
      <trkpt lat="51.228415618484" lon="4.537411897007">
        <ele>2.4</ele>
        <time>2020-07-05T13:03:21Z</time>
      </trkpt>
      <trkpt lat="51.228327776172" lon="4.537866112168">
        <ele>3.8</ele>
        <time>2020-07-05T13:03:26Z</time>
      </trkpt>
      <trkpt lat="51.228170950823" lon="4.536332392106">
        <ele>6.8</ele>
        <time>2020-07-05T13:03:50Z</time>
      </trkpt>
      <trkpt lat="51.228074307516" lon="4.53631864579">
        <ele>5</ele>
        <time>2020-07-05T13:03:52Z</time>
      </trkpt>
      <trkpt lat="51.227972132155" lon="4.536366087344">
        <ele>3</ele>
        <time>2020-07-05T13:03:54Z</time>
      </trkpt>
      <trkpt lat="51.227869118604" lon="4.53647035818">
        <ele>2</ele>
        <time>2020-07-05T13:03:56Z</time>
      </trkpt>
      <trkpt lat="51.227553791526" lon="4.537018702078">
        <ele>1</ele>
        <time>2020-07-05T13:04:03Z</time>
      </trkpt>
      <trkpt lat="51.227339131067" lon="4.537634268814">
        <ele>4</ele>
        <time>2020-07-05T13:04:11Z</time>
      </trkpt>
      <trkpt lat="51.227271740591" lon="4.537850438015">
        <ele>4</ele>
        <time>2020-07-05T13:04:14Z</time>
      </trkpt>
      <trkpt lat="51.226945936138" lon="4.538562228963">
        <ele>4.8</ele>
        <time>2020-07-05T13:04:23Z</time>
      </trkpt>
      <trkpt lat="51.226699759735" lon="4.539382649335">
        <ele>4</ele>
        <time>2020-07-05T13:04:32Z</time>
      </trkpt>
      <trkpt lat="51.226492894443" lon="4.540228131588">
        <ele>4</ele>
        <time>2020-07-05T13:04:40Z</time>
      </trkpt>
      <trkpt lat="51.22623582157" lon="4.541080486999">
        <ele>3</ele>
        <time>2020-07-05T13:04:48Z</time>
      </trkpt>
      <trkpt lat="51.225975647394" lon="4.541928567641">
        <ele>1.6</ele>
        <time>2020-07-05T13:04:56Z</time>
      </trkpt>
      <trkpt lat="51.225720167082" lon="4.542766422365">
        <ele>3</ele>
        <time>2020-07-05T13:05:04Z</time>
      </trkpt>
      <trkpt lat="51.225500896578" lon="4.543436303813">
        <ele>4</ele>
        <time>2020-07-05T13:05:11Z</time>
      </trkpt>
      <trkpt lat="51.225445659857" lon="4.543725479363">
        <ele>5</ele>
        <time>2020-07-05T13:05:14Z</time>
      </trkpt>
      <trkpt lat="51.225179534532" lon="4.544560484241">
        <ele>5.2</ele>
        <time>2020-07-05T13:05:23Z</time>
      </trkpt>
      <trkpt lat="51.224941991486" lon="4.545343940434">
        <ele>5</ele>
        <time>2020-07-05T13:05:31Z</time>
      </trkpt>
      <trkpt lat="51.224674525057" lon="4.546163522616">
        <ele>5</ele>
        <time>2020-07-05T13:05:39Z</time>
      </trkpt>
      <trkpt lat="51.224410746664" lon="4.547010345973">
        <ele>3.2</ele>
        <time>2020-07-05T13:05:47Z</time>
      </trkpt>
      <trkpt lat="51.224149482841" lon="4.547820624246">
        <ele>3.4</ele>
        <time>2020-07-05T13:05:55Z</time>
      </trkpt>
      <trkpt lat="51.223902468248" lon="4.548602487878">
        <ele>4.6</ele>
        <time>2020-07-05T13:06:03Z</time>
      </trkpt>
      <trkpt lat="51.223636091466" lon="4.549454591832">
        <ele>5.4</ele>
        <time>2020-07-05T13:06:12Z</time>
      </trkpt>
      <trkpt lat="51.22338513738" lon="4.550226145727">
        <ele>5.6</ele>
        <time>2020-07-05T13:06:21Z</time>
      </trkpt>
      <trkpt lat="51.223307604805" lon="4.550509621585">
        <ele>5.6</ele>
        <time>2020-07-05T13:06:24Z</time>
      </trkpt>
      <trkpt lat="51.223025805327" lon="4.551359713883">
        <ele>5.4</ele>
        <time>2020-07-05T13:06:33Z</time>
      </trkpt>
      <trkpt lat="51.222772085214" lon="4.552168315776">
        <ele>5.2</ele>
        <time>2020-07-05T13:06:41Z</time>
      </trkpt>
      <trkpt lat="51.222495063419" lon="4.553040955385">
        <ele>5.2</ele>
        <time>2020-07-05T13:06:49Z</time>
      </trkpt>
      <trkpt lat="51.22224855174" lon="4.553843187034">
        <ele>5.2</ele>
        <time>2020-07-05T13:06:56Z</time>
      </trkpt>
      <trkpt lat="51.221995083084" lon="4.554639383715">
        <ele>5.6</ele>
        <time>2020-07-05T13:07:03Z</time>
      </trkpt>
      <trkpt lat="51.221742871713" lon="4.555459384992">
        <ele>6.4</ele>
        <time>2020-07-05T13:07:11Z</time>
      </trkpt>
      <trkpt lat="51.22150340083" lon="4.556306878901">
        <ele>3.8</ele>
        <time>2020-07-05T13:07:20Z</time>
      </trkpt>
      <trkpt lat="51.221241801731" lon="4.557074409484">
        <ele>3.8</ele>
        <time>2020-07-05T13:07:28Z</time>
      </trkpt>
      <trkpt lat="51.220983303935" lon="4.557873791287">
        <ele>4.6</ele>
        <time>2020-07-05T13:07:36Z</time>
      </trkpt>
      <trkpt lat="51.220727404528" lon="4.558675352384">
        <ele>4.8</ele>
        <time>2020-07-05T13:07:44Z</time>
      </trkpt>
      <trkpt lat="51.220475947528" lon="4.559477164938">
        <ele>5</ele>
        <time>2020-07-05T13:07:52Z</time>
      </trkpt>
      <trkpt lat="51.220218539379" lon="4.560269338307">
        <ele>4.8</ele>
        <time>2020-07-05T13:08:00Z</time>
      </trkpt>
      <trkpt lat="51.219965741275" lon="4.561030666284">
        <ele>3.8</ele>
        <time>2020-07-05T13:08:08Z</time>
      </trkpt>
      <trkpt lat="51.219740100527" lon="4.561835915417">
        <ele>2.6</ele>
        <time>2020-07-05T13:08:16Z</time>
      </trkpt>
      <trkpt lat="51.219497695979" lon="4.562610654434">
        <ele>2.2</ele>
        <time>2020-07-05T13:08:24Z</time>
      </trkpt>
      <trkpt lat="51.219218159614" lon="4.563462255474">
        <ele>2</ele>
        <time>2020-07-05T13:08:33Z</time>
      </trkpt>
      <trkpt lat="51.21898715445" lon="4.56426557677">
        <ele>2.4</ele>
        <time>2020-07-05T13:08:41Z</time>
      </trkpt>
      <trkpt lat="51.218880033768" lon="4.564545951325">
        <ele>2.4</ele>
        <time>2020-07-05T13:08:44Z</time>
      </trkpt>
      <trkpt lat="51.218643580369" lon="4.565327814957">
        <ele>2.8</ele>
        <time>2020-07-05T13:08:52Z</time>
      </trkpt>
      <trkpt lat="51.218387513324" lon="4.566109930046">
        <ele>3.2</ele>
        <time>2020-07-05T13:09:00Z</time>
      </trkpt>
      <trkpt lat="51.218139325265" lon="4.566880813389">
        <ele>3.4</ele>
        <time>2020-07-05T13:09:08Z</time>
      </trkpt>
      <trkpt lat="51.217865823868" lon="4.567734174628">
        <ele>3.6</ele>
        <time>2020-07-05T13:09:17Z</time>
      </trkpt>
      <trkpt lat="51.217621072388" lon="4.568519893934">
        <ele>3.6</ele>
        <time>2020-07-05T13:09:25Z</time>
      </trkpt>
      <trkpt lat="51.217363748058" lon="4.569306283792">
        <ele>3.8</ele>
        <time>2020-07-05T13:09:33Z</time>
      </trkpt>
      <trkpt lat="51.217100807855" lon="4.570138438824">
        <ele>4</ele>
        <time>2020-07-05T13:09:42Z</time>
      </trkpt>
      <trkpt lat="51.216850691959" lon="4.570932037116">
        <ele>4</ele>
        <time>2020-07-05T13:09:51Z</time>
      </trkpt>
      <trkpt lat="51.216595630742" lon="4.571718678431">
        <ele>4.2</ele>
        <time>2020-07-05T13:09:59Z</time>
      </trkpt>
      <trkpt lat="51.216354818755" lon="4.572539936993">
        <ele>4.4</ele>
        <time>2020-07-05T13:10:07Z</time>
      </trkpt>
      <trkpt lat="51.216087519964" lon="4.57333311619">
        <ele>5</ele>
        <time>2020-07-05T13:10:15Z</time>
      </trkpt>
      <trkpt lat="51.215830698548" lon="4.574135683115">
        <ele>5.2</ele>
        <time>2020-07-05T13:10:23Z</time>
      </trkpt>
      <trkpt lat="51.21556482468" lon="4.574978986074">
        <ele>5</ele>
        <time>2020-07-05T13:10:31Z</time>
      </trkpt>
      <trkpt lat="51.215291742378" lon="4.575837376453">
        <ele>4.6</ele>
        <time>2020-07-05T13:10:40Z</time>
      </trkpt>
      <trkpt lat="51.215237762942" lon="4.576024628099">
        <ele>4.6</ele>
        <time>2020-07-05T13:10:42Z</time>
      </trkpt>
      <trkpt lat="51.214995526032" lon="4.576847479222">
        <ele>3.4</ele>
        <time>2020-07-05T13:10:51Z</time>
      </trkpt>
      <trkpt lat="51.214762090117" lon="4.577702433022">
        <ele>3.2</ele>
        <time>2020-07-05T13:11:01Z</time>
      </trkpt>
      <trkpt lat="51.214635523427" lon="4.57811163738">
        <ele>3.2</ele>
        <time>2020-07-05T13:11:06Z</time>
      </trkpt>
      <trkpt lat="51.214467801608" lon="4.578451691063">
        <ele>1.8</ele>
        <time>2020-07-05T13:11:11Z</time>
      </trkpt>
      <trkpt lat="51.214187343234" lon="4.579311254908">
        <ele>0</ele>
        <time>2020-07-05T13:11:20Z</time>
      </trkpt>
      <trkpt lat="51.213916607864" lon="4.580179284472">
        <ele>0</ele>
        <time>2020-07-05T13:11:28Z</time>
      </trkpt>
      <trkpt lat="51.213656517507" lon="4.580968440357">
        <ele>0</ele>
        <time>2020-07-05T13:11:35Z</time>
      </trkpt>
      <trkpt lat="51.213385865956" lon="4.581756003681">
        <ele>0</ele>
        <time>2020-07-05T13:11:42Z</time>
      </trkpt>
      <trkpt lat="51.213124769771" lon="4.582519427133">
        <ele>1.2</ele>
        <time>2020-07-05T13:11:49Z</time>
      </trkpt>
      <trkpt lat="51.212845401044" lon="4.583364155015">
        <ele>2.2</ele>
        <time>2020-07-05T13:11:57Z</time>
      </trkpt>
      <trkpt lat="51.212568965982" lon="4.584199076074">
        <ele>3</ele>
        <time>2020-07-05T13:12:05Z</time>
      </trkpt>
      <trkpt lat="51.21230594196" lon="4.585001307723">
        <ele>3.4</ele>
        <time>2020-07-05T13:12:13Z</time>
      </trkpt>
      <trkpt lat="51.212042666481" lon="4.585805131933">
        <ele>4.8</ele>
        <time>2020-07-05T13:12:21Z</time>
      </trkpt>
      <trkpt lat="51.211642430756" lon="4.58704087545">
        <ele>5.2</ele>
        <time>2020-07-05T13:12:33Z</time>
      </trkpt>
      <trkpt lat="51.211377730354" lon="4.587838999968">
        <ele>5</ele>
        <time>2020-07-05T13:12:41Z</time>
      </trkpt>
      <trkpt lat="51.211106156794" lon="4.588684733678">
        <ele>4.8</ele>
        <time>2020-07-05T13:12:50Z</time>
      </trkpt>
      <trkpt lat="51.210839863831" lon="4.589501549833">
        <ele>4.2</ele>
        <time>2020-07-05T13:12:59Z</time>
      </trkpt>
      <trkpt lat="51.21056669771" lon="4.59032490387">
        <ele>4</ele>
        <time>2020-07-05T13:13:07Z</time>
      </trkpt>
      <trkpt lat="51.210300907661" lon="4.591182120783">
        <ele>4.2</ele>
        <time>2020-07-05T13:13:15Z</time>
      </trkpt>
      <trkpt lat="51.210263608206" lon="4.59128798418">
        <ele>4.2</ele>
        <time>2020-07-05T13:13:16Z</time>
      </trkpt>
      <trkpt lat="51.209981389633" lon="4.592132376786">
        <ele>4.2</ele>
        <time>2020-07-05T13:13:24Z</time>
      </trkpt>
      <trkpt lat="51.209702775277" lon="4.592982552903">
        <ele>4</ele>
        <time>2020-07-05T13:13:32Z</time>
      </trkpt>
      <trkpt lat="51.209428687147" lon="4.593826191138">
        <ele>3.8</ele>
        <time>2020-07-05T13:13:40Z</time>
      </trkpt>
      <trkpt lat="51.209159628157" lon="4.59466169893">
        <ele>4.4</ele>
        <time>2020-07-05T13:13:48Z</time>
      </trkpt>
      <trkpt lat="51.208880846163" lon="4.595470468461">
        <ele>4.4</ele>
        <time>2020-07-05T13:13:56Z</time>
      </trkpt>
      <trkpt lat="51.208596029201" lon="4.596321231311">
        <ele>5.6</ele>
        <time>2020-07-05T13:14:04Z</time>
      </trkpt>
      <trkpt lat="51.208429564667" lon="4.596862450594">
        <ele>5.6</ele>
        <time>2020-07-05T13:14:09Z</time>
      </trkpt>
      <trkpt lat="51.208172240337" lon="4.597647666986">
        <ele>5.4</ele>
        <time>2020-07-05T13:14:17Z</time>
      </trkpt>
      <trkpt lat="51.207897481655" lon="4.598486862814">
        <ele>5.2</ele>
        <time>2020-07-05T13:14:25Z</time>
      </trkpt>
      <trkpt lat="51.207624231715" lon="4.599256740329">
        <ele>5.2</ele>
        <time>2020-07-05T13:14:33Z</time>
      </trkpt>
      <trkpt lat="51.20733128431" lon="4.600029048595">
        <ele>5</ele>
        <time>2020-07-05T13:14:41Z</time>
      </trkpt>
      <trkpt lat="51.207079324396" lon="4.600876458685">
        <ele>4.6</ele>
        <time>2020-07-05T13:14:49Z</time>
      </trkpt>
      <trkpt lat="51.206813199071" lon="4.601701489102">
        <ele>5.2</ele>
        <time>2020-07-05T13:14:57Z</time>
      </trkpt>
      <trkpt lat="51.206552773438" lon="4.602523585854">
        <ele>4.8</ele>
        <time>2020-07-05T13:15:05Z</time>
      </trkpt>
      <trkpt lat="51.206295700565" lon="4.60332942172">
        <ele>4.6</ele>
        <time>2020-07-05T13:15:13Z</time>
      </trkpt>
      <trkpt lat="51.20605304456" lon="4.604112123542">
        <ele>4.4</ele>
        <time>2020-07-05T13:15:21Z</time>
      </trkpt>
      <trkpt lat="51.20582757145" lon="4.60493036462">
        <ele>3.2</ele>
        <time>2020-07-05T13:15:29Z</time>
      </trkpt>
      <trkpt lat="51.205573013147" lon="4.60575262901">
        <ele>2.8</ele>
        <time>2020-07-05T13:15:37Z</time>
      </trkpt>
      <trkpt lat="51.205295823714" lon="4.606545305293">
        <ele>2.6</ele>
        <time>2020-07-05T13:15:46Z</time>
      </trkpt>
      <trkpt lat="51.205235054939" lon="4.606734903871">
        <ele>2.8</ele>
        <time>2020-07-05T13:15:48Z</time>
      </trkpt>
      <trkpt lat="51.204928947951" lon="4.607552474397">
        <ele>2</ele>
        <time>2020-07-05T13:15:57Z</time>
      </trkpt>
      <trkpt lat="51.204655278916" lon="4.608401560867">
        <ele>2.6</ele>
        <time>2020-07-05T13:16:06Z</time>
      </trkpt>
      <trkpt lat="51.204404408649" lon="4.609178562997">
        <ele>3.4</ele>
        <time>2020-07-05T13:16:15Z</time>
      </trkpt>
      <trkpt lat="51.204173654942" lon="4.609963192656">
        <ele>3.6</ele>
        <time>2020-07-05T13:16:23Z</time>
      </trkpt>
      <trkpt lat="51.20401959562" lon="4.610856284101">
        <ele>4.2</ele>
        <time>2020-07-05T13:16:31Z</time>
      </trkpt>
      <trkpt lat="51.204020936724" lon="4.611836547306">
        <ele>4.4</ele>
        <time>2020-07-05T13:16:39Z</time>
      </trkpt>
      <trkpt lat="51.204174157856" lon="4.612679263532">
        <ele>4.6</ele>
        <time>2020-07-05T13:16:46Z</time>
      </trkpt>
      <trkpt lat="51.204449754728" lon="4.613463725553">
        <ele>5</ele>
        <time>2020-07-05T13:16:53Z</time>
      </trkpt>
      <trkpt lat="51.204865077873" lon="4.614106617283">
        <ele>5.4</ele>
        <time>2020-07-05T13:17:00Z</time>
      </trkpt>
      <trkpt lat="51.205378553067" lon="4.614566280679">
        <ele>5.6</ele>
        <time>2020-07-05T13:17:07Z</time>
      </trkpt>
      <trkpt lat="51.205926729327" lon="4.614803907544">
        <ele>6</ele>
        <time>2020-07-05T13:17:14Z</time>
      </trkpt>
      <trkpt lat="51.206529052661" lon="4.614794603635">
        <ele>6</ele>
        <time>2020-07-05T13:17:22Z</time>
      </trkpt>
      <trkpt lat="51.206883355574" lon="4.614755543981">
        <ele>4.8</ele>
        <time>2020-07-05T13:17:27Z</time>
      </trkpt>
      <trkpt lat="51.206984357469" lon="4.61490734019">
        <ele>4.4</ele>
        <time>2020-07-05T13:17:29Z</time>
      </trkpt>
      <trkpt lat="51.207007323875" lon="4.615128370893">
        <ele>3</ele>
        <time>2020-07-05T13:17:31Z</time>
      </trkpt>
      <trkpt lat="51.207031044652" lon="4.616059348526">
        <ele>0</ele>
        <time>2020-07-05T13:17:39Z</time>
      </trkpt>
      <trkpt lat="51.207044036597" lon="4.616423122986">
        <ele>0</ele>
        <time>2020-07-05T13:17:42Z</time>
      </trkpt>
      <trkpt lat="51.206971114067" lon="4.616616325781">
        <ele>0</ele>
        <time>2020-07-05T13:17:44Z</time>
      </trkpt>
      <trkpt lat="51.206827196844" lon="4.616671981597">
        <ele>1.2</ele>
        <time>2020-07-05T13:17:46Z</time>
      </trkpt>
      <trkpt lat="51.206256221816" lon="4.616782538858">
        <ele>3.4</ele>
        <time>2020-07-05T13:17:54Z</time>
      </trkpt>
      <trkpt lat="51.205666555151" lon="4.616956463283">
        <ele>4.2</ele>
        <time>2020-07-05T13:18:03Z</time>
      </trkpt>
      <trkpt lat="51.205116534873" lon="4.617167854801">
        <ele>6.2</ele>
        <time>2020-07-05T13:18:12Z</time>
      </trkpt>
      <trkpt lat="51.204567604242" lon="4.617453007039">
        <ele>7.4</ele>
        <time>2020-07-05T13:18:21Z</time>
      </trkpt>
      <trkpt lat="51.204022026371" lon="4.617812925825">
        <ele>6.8</ele>
        <time>2020-07-05T13:18:30Z</time>
      </trkpt>
      <trkpt lat="51.203486758237" lon="4.61822070526">
        <ele>5.2</ele>
        <time>2020-07-05T13:18:39Z</time>
      </trkpt>
      <trkpt lat="51.202986274988" lon="4.61867668062">
        <ele>6.2</ele>
        <time>2020-07-05T13:18:48Z</time>
      </trkpt>
      <trkpt lat="51.202490485603" lon="4.619211529659">
        <ele>6.6</ele>
        <time>2020-07-05T13:18:57Z</time>
      </trkpt>
      <trkpt lat="51.202056889916" lon="4.619726681233">
        <ele>6.4</ele>
        <time>2020-07-05T13:19:05Z</time>
      </trkpt>
      <trkpt lat="51.201621366392" lon="4.620314252423">
        <ele>6</ele>
        <time>2020-07-05T13:19:14Z</time>
      </trkpt>
      <trkpt lat="51.20123177568" lon="4.620914061187">
        <ele>7.6</ele>
        <time>2020-07-05T13:19:22Z</time>
      </trkpt>
      <trkpt lat="51.200839921855" lon="4.621610597077">
        <ele>7.6</ele>
        <time>2020-07-05T13:19:31Z</time>
      </trkpt>
      <trkpt lat="51.20047824287" lon="4.622349880657">
        <ele>5.4</ele>
        <time>2020-07-05T13:19:40Z</time>
      </trkpt>
      <trkpt lat="51.200172219701" lon="4.623071394609">
        <ele>5.2</ele>
        <time>2020-07-05T13:19:49Z</time>
      </trkpt>
      <trkpt lat="51.19989150987" lon="4.623814617682">
        <ele>5.4</ele>
        <time>2020-07-05T13:19:57Z</time>
      </trkpt>
      <trkpt lat="51.199618092292" lon="4.624637217348">
        <ele>5.6</ele>
        <time>2020-07-05T13:20:05Z</time>
      </trkpt>
      <trkpt lat="51.199368646948" lon="4.62553558939">
        <ele>5.6</ele>
        <time>2020-07-05T13:20:13Z</time>
      </trkpt>
      <trkpt lat="51.199166894615" lon="4.626353998106">
        <ele>6.2</ele>
        <time>2020-07-05T13:20:20Z</time>
      </trkpt>
      <trkpt lat="51.198968411223" lon="4.62716670713">
        <ele>5.6</ele>
        <time>2020-07-05T13:20:27Z</time>
      </trkpt>
      <trkpt lat="51.198777303903" lon="4.627975225204">
        <ele>5</ele>
        <time>2020-07-05T13:20:34Z</time>
      </trkpt>
      <trkpt lat="51.198583011461" lon="4.628839650551">
        <ele>4.8</ele>
        <time>2020-07-05T13:20:42Z</time>
      </trkpt>
      <trkpt lat="51.198404644629" lon="4.629712960712">
        <ele>4.2</ele>
        <time>2020-07-05T13:20:50Z</time>
      </trkpt>
      <trkpt lat="51.198226110159" lon="4.630597754076">
        <ele>4.2</ele>
        <time>2020-07-05T13:20:58Z</time>
      </trkpt>
      <trkpt lat="51.198066686421" lon="4.631501909629">
        <ele>4.6</ele>
        <time>2020-07-05T13:21:06Z</time>
      </trkpt>
      <trkpt lat="51.197910531624" lon="4.632410759046">
        <ele>5</ele>
        <time>2020-07-05T13:21:14Z</time>
      </trkpt>
      <trkpt lat="51.197757310492" lon="4.633340730851">
        <ele>5.2</ele>
        <time>2020-07-05T13:21:22Z</time>
      </trkpt>
      <trkpt lat="51.197635186209" lon="4.634244299671">
        <ele>5.2</ele>
        <time>2020-07-05T13:21:30Z</time>
      </trkpt>
      <trkpt lat="51.197518174885" lon="4.635099253471">
        <ele>4.8</ele>
        <time>2020-07-05T13:21:38Z</time>
      </trkpt>
      <trkpt lat="51.197415412791" lon="4.636016400969">
        <ele>4.6</ele>
        <time>2020-07-05T13:21:46Z</time>
      </trkpt>
      <trkpt lat="51.197381214639" lon="4.636241203527">
        <ele>4.8</ele>
        <time>2020-07-05T13:21:48Z</time>
      </trkpt>
      <trkpt lat="51.197284152237" lon="4.637187603856">
        <ele>4.8</ele>
        <time>2020-07-05T13:21:57Z</time>
      </trkpt>
      <trkpt lat="51.197196226106" lon="4.63811514491">
        <ele>5</ele>
        <time>2020-07-05T13:22:05Z</time>
      </trkpt>
      <trkpt lat="51.197112574744" lon="4.639019132825">
        <ele>5.2</ele>
        <time>2020-07-05T13:22:13Z</time>
      </trkpt>
      <trkpt lat="51.197027833735" lon="4.639903255637">
        <ele>5.2</ele>
        <time>2020-07-05T13:22:22Z</time>
      </trkpt>
      <trkpt lat="51.196978212887" lon="4.640196203042">
        <ele>4.8</ele>
        <time>2020-07-05T13:22:25Z</time>
      </trkpt>
      <trkpt lat="51.197160854488" lon="4.640899109176">
        <ele>3</ele>
        <time>2020-07-05T13:22:39Z</time>
      </trkpt>
      <trkpt lat="51.19721349282" lon="4.640993824646">
        <ele>3.8</ele>
        <time>2020-07-05T13:22:41Z</time>
      </trkpt>
      <trkpt lat="51.197688998007" lon="4.641565805502">
        <ele>4.2</ele>
        <time>2020-07-05T13:22:52Z</time>
      </trkpt>
      <trkpt lat="51.198211693291" lon="4.642028402563">
        <ele>4</ele>
        <time>2020-07-05T13:23:01Z</time>
      </trkpt>
      <trkpt lat="51.198738244249" lon="4.642384800951">
        <ele>4.4</ele>
        <time>2020-07-05T13:23:09Z</time>
      </trkpt>
      <trkpt lat="51.19900470485" lon="4.642539195549">
        <ele>3.2</ele>
        <time>2020-07-05T13:23:13Z</time>
      </trkpt>
      <trkpt lat="51.197967947639" lon="4.642661236013">
        <ele>4</ele>
        <time>2020-07-05T13:24:39Z</time>
      </trkpt>
      <trkpt lat="51.19781196048" lon="4.64282577271">
        <ele>0</ele>
        <time>2020-07-05T13:24:43Z</time>
      </trkpt>
      <trkpt lat="51.197750437334" lon="4.642969187019">
        <ele>0</ele>
        <time>2020-07-05T13:24:45Z</time>
      </trkpt>
      <trkpt lat="51.197644825394" lon="4.643297338404">
        <ele>0</ele>
        <time>2020-07-05T13:24:49Z</time>
      </trkpt>
      <trkpt lat="51.197568969199" lon="4.643418792135">
        <ele>0</ele>
        <time>2020-07-05T13:24:51Z</time>
      </trkpt>
      <trkpt lat="51.196965053304" lon="4.643506215352">
        <ele>0</ele>
        <time>2020-07-05T13:25:00Z</time>
      </trkpt>
      <trkpt lat="51.196624915802" lon="4.643574527837">
        <ele>0</ele>
        <time>2020-07-05T13:25:06Z</time>
      </trkpt>
      <trkpt lat="51.196574121488" lon="4.64387267202">
        <ele>0.6</ele>
        <time>2020-07-05T13:25:11Z</time>
      </trkpt>
      <trkpt lat="51.196585604691" lon="4.644054391612">
        <ele>2</ele>
        <time>2020-07-05T13:25:13Z</time>
      </trkpt>
      <trkpt lat="51.196491643592" lon="4.644909261593">
        <ele>3.4</ele>
        <time>2020-07-05T13:25:21Z</time>
      </trkpt>
      <trkpt lat="51.196422912012" lon="4.645506639606">
        <ele>3.6</ele>
        <time>2020-07-05T13:25:47Z</time>
      </trkpt>
      <trkpt lat="51.196440514002" lon="4.645567827476">
        <ele>8</ele>
        <time>2020-07-05T13:28:01Z</time>
      </trkpt>
      <trkpt lat="51.196297434969" lon="4.646453039935">
        <ele>7.2</ele>
        <time>2020-07-05T13:28:15Z</time>
      </trkpt>
      <trkpt lat="51.196147818054" lon="4.647387035052">
        <ele>4.6</ele>
        <time>2020-07-05T13:28:24Z</time>
      </trkpt>
      <trkpt lat="51.196000799528" lon="4.648252885322">
        <ele>4.4</ele>
        <time>2020-07-05T13:28:32Z</time>
      </trkpt>
      <trkpt lat="51.195834167356" lon="4.649101887973">
        <ele>4.6</ele>
        <time>2020-07-05T13:28:40Z</time>
      </trkpt>
      <trkpt lat="51.19566535589" lon="4.649953237556">
        <ele>4.2</ele>
        <time>2020-07-05T13:28:48Z</time>
      </trkpt>
      <trkpt lat="51.195476511683" lon="4.650831744495">
        <ele>3.8</ele>
        <time>2020-07-05T13:28:56Z</time>
      </trkpt>
      <trkpt lat="51.195285069087" lon="4.651657026369">
        <ele>3.6</ele>
        <time>2020-07-05T13:29:04Z</time>
      </trkpt>
      <trkpt lat="51.195084071125" lon="4.652484487537">
        <ele>3.8</ele>
        <time>2020-07-05T13:29:12Z</time>
      </trkpt>
      <trkpt lat="51.194855245255" lon="4.653363916485">
        <ele>4.2</ele>
        <time>2020-07-05T13:29:21Z</time>
      </trkpt>
      <trkpt lat="51.194628431041" lon="4.654191880567">
        <ele>4.2</ele>
        <time>2020-07-05T13:29:29Z</time>
      </trkpt>
      <trkpt lat="51.194393905479" lon="4.655000650098">
        <ele>4.6</ele>
        <time>2020-07-05T13:29:37Z</time>
      </trkpt>
      <trkpt lat="51.194145214506" lon="4.655783435739">
        <ele>4.2</ele>
        <time>2020-07-05T13:29:45Z</time>
      </trkpt>
      <trkpt lat="51.193768783377" lon="4.656512158125">
        <ele>3.6</ele>
        <time>2020-07-05T13:29:54Z</time>
      </trkpt>
      <trkpt lat="51.193707427869" lon="4.656672168596">
        <ele>3.6</ele>
        <time>2020-07-05T13:29:56Z</time>
      </trkpt>
      <trkpt lat="51.193477596171" lon="4.657223865254">
        <ele>3.2</ele>
        <time>2020-07-05T13:30:03Z</time>
      </trkpt>
      <trkpt lat="51.193381120502" lon="4.657583281126">
        <ele>3</ele>
        <time>2020-07-05T13:30:07Z</time>
      </trkpt>
      <trkpt lat="51.193349604558" lon="4.657790984608">
        <ele>2.8</ele>
        <time>2020-07-05T13:30:09Z</time>
      </trkpt>
      <trkpt lat="51.193267042843" lon="4.658692793229">
        <ele>3.2</ele>
        <time>2020-07-05T13:30:17Z</time>
      </trkpt>
      <trkpt lat="51.193059842275" lon="4.659590578538">
        <ele>4</ele>
        <time>2020-07-05T13:30:26Z</time>
      </trkpt>
      <trkpt lat="51.193410373333" lon="4.657172568026">
        <ele>14.8</ele>
        <time>2020-07-05T13:31:47Z</time>
      </trkpt>
      <trkpt lat="51.193335271509" lon="4.657119175323">
        <ele>15.2</ele>
        <time>2020-07-05T13:31:49Z</time>
      </trkpt>
      <trkpt lat="51.192826573998" lon="4.656795214888">
        <ele>12.6</ele>
        <time>2020-07-05T13:32:00Z</time>
      </trkpt>
      <trkpt lat="51.192279319747" lon="4.656458681603">
        <ele>11.6</ele>
        <time>2020-07-05T13:32:09Z</time>
      </trkpt>
      <trkpt lat="51.191707757986" lon="4.65624100366">
        <ele>9</ele>
        <time>2020-07-05T13:32:16Z</time>
      </trkpt>
      <trkpt lat="51.191169640006" lon="4.656017374568">
        <ele>6</ele>
        <time>2020-07-05T13:32:22Z</time>
      </trkpt>
      <trkpt lat="51.190764542779" lon="4.655768683595">
        <ele>3.6</ele>
        <time>2020-07-05T13:32:29Z</time>
      </trkpt>
      <trkpt lat="51.190785832805" lon="4.655654857393">
        <ele>3.6</ele>
        <time>2020-07-05T13:32:33Z</time>
      </trkpt>
      <trkpt lat="51.190694805371" lon="4.655500965709">
        <ele>3.4</ele>
        <time>2020-07-05T13:32:41Z</time>
      </trkpt>
      <trkpt lat="51.190675359363" lon="4.6555000437">
        <ele>3.4</ele>
        <time>2020-07-05T13:32:42Z</time>
      </trkpt>
      <trkpt lat="51.190103462326" lon="4.655035770259">
        <ele>3</ele>
        <time>2020-07-05T13:32:59Z</time>
      </trkpt>
      <trkpt lat="51.189721666781" lon="4.654379886584">
        <ele>4.6</ele>
        <time>2020-07-05T13:33:13Z</time>
      </trkpt>
      <trkpt lat="51.189621000162" lon="4.654107307196">
        <ele>4.6</ele>
        <time>2020-07-05T13:33:17Z</time>
      </trkpt>
      <trkpt lat="51.189411536481" lon="4.653712435887">
        <ele>5.6</ele>
        <time>2020-07-05T13:33:25Z</time>
      </trkpt>
      <trkpt lat="51.189396197604" lon="4.653642195565">
        <ele>5.8</ele>
        <time>2020-07-05T13:33:26Z</time>
      </trkpt>
      <trkpt lat="51.18924482049" lon="4.652747930654">
        <ele>6.6</ele>
        <time>2020-07-05T13:33:37Z</time>
      </trkpt>
      <trkpt lat="51.1891517814" lon="4.652096908481">
        <ele>6.2</ele>
        <time>2020-07-05T13:33:45Z</time>
      </trkpt>
      <trkpt lat="51.188969223618" lon="4.65123281841">
        <ele>6.2</ele>
        <time>2020-07-05T13:33:55Z</time>
      </trkpt>
      <trkpt lat="51.188793958089" lon="4.650414242056">
        <ele>6.6</ele>
        <time>2020-07-05T13:34:04Z</time>
      </trkpt>
      <trkpt lat="51.188616094171" lon="4.649601952127">
        <ele>6.6</ele>
        <time>2020-07-05T13:34:13Z</time>
      </trkpt>
      <trkpt lat="51.188460107012" lon="4.648707771035">
        <ele>7.6</ele>
        <time>2020-07-05T13:34:23Z</time>
      </trkpt>
      <trkpt lat="51.188398667685" lon="4.647832113942">
        <ele>7.2</ele>
        <time>2020-07-05T13:34:33Z</time>
      </trkpt>
      <trkpt lat="51.188438733167" lon="4.64692703638">
        <ele>6.6</ele>
        <time>2020-07-05T13:34:43Z</time>
      </trkpt>
      <trkpt lat="51.188472260767" lon="4.646058839178">
        <ele>6</ele>
        <time>2020-07-05T13:34:52Z</time>
      </trkpt>
      <trkpt lat="51.18850888967" lon="4.645164490448">
        <ele>5.8</ele>
        <time>2020-07-05T13:35:01Z</time>
      </trkpt>
      <trkpt lat="51.188545434754" lon="4.644262346551">
        <ele>5.4</ele>
        <time>2020-07-05T13:35:10Z</time>
      </trkpt>
      <trkpt lat="51.188587763349" lon="4.64331024653">
        <ele>5.2</ele>
        <time>2020-07-05T13:35:20Z</time>
      </trkpt>
      <trkpt lat="51.188636713645" lon="4.642369629712">
        <ele>5</ele>
        <time>2020-07-05T13:35:30Z</time>
      </trkpt>
      <trkpt lat="51.188680299525" lon="4.641435634595">
        <ele>4.2</ele>
        <time>2020-07-05T13:35:41Z</time>
      </trkpt>
      <trkpt lat="51.188726735251" lon="4.640522091314">
        <ele>3.6</ele>
        <time>2020-07-05T13:35:51Z</time>
      </trkpt>
      <trkpt lat="51.188751880951" lon="4.639576026261">
        <ele>3.4</ele>
        <time>2020-07-05T13:36:01Z</time>
      </trkpt>
      <trkpt lat="51.188746432716" lon="4.63921904114">
        <ele>3.4</ele>
        <time>2020-07-05T13:36:05Z</time>
      </trkpt>
      <trkpt lat="51.188683568466" lon="4.638349083739">
        <ele>3.2</ele>
        <time>2020-07-05T13:36:15Z</time>
      </trkpt>
      <trkpt lat="51.188606874081" lon="4.637444006177">
        <ele>3</ele>
        <time>2020-07-05T13:36:26Z</time>
      </trkpt>
      <trkpt lat="51.188524899099" lon="4.636520404616">
        <ele>3.8</ele>
        <time>2020-07-05T13:36:37Z</time>
      </trkpt>
      <trkpt lat="51.188476367898" lon="4.63609510701">
        <ele>4</ele>
        <time>2020-07-05T13:36:44Z</time>
      </trkpt>
      <trkpt lat="51.188415766761" lon="4.635188604525">
        <ele>3.8</ele>
        <time>2020-07-05T13:36:54Z</time>
      </trkpt>
      <trkpt lat="51.188312082658" lon="4.634288472284">
        <ele>3.2</ele>
        <time>2020-07-05T13:37:03Z</time>
      </trkpt>
      <trkpt lat="51.188243770173" lon="4.633780780601">
        <ele>3.4</ele>
        <time>2020-07-05T13:37:08Z</time>
      </trkpt>
      <trkpt lat="51.1882213905" lon="4.633594115688">
        <ele>3.6</ele>
        <time>2020-07-05T13:37:10Z</time>
      </trkpt>
      <trkpt lat="51.188102116063" lon="4.632732707825">
        <ele>3.6</ele>
        <time>2020-07-05T13:37:19Z</time>
      </trkpt>
      <trkpt lat="51.188003377281" lon="4.631973894418">
        <ele>3.4</ele>
        <time>2020-07-05T13:37:28Z</time>
      </trkpt>
      <trkpt lat="51.188013687018" lon="4.631825702426">
        <ele>3.2</ele>
        <time>2020-07-05T13:37:30Z</time>
      </trkpt>
      <trkpt lat="51.188029528809" lon="4.631684132135">
        <ele>3.2</ele>
        <time>2020-07-05T13:37:32Z</time>
      </trkpt>
      <trkpt lat="51.188042939849" lon="4.631538622351">
        <ele>3.4</ele>
        <time>2020-07-05T13:37:34Z</time>
      </trkpt>
      <trkpt lat="51.188101361692" lon="4.631417336258">
        <ele>3.4</ele>
        <time>2020-07-05T13:37:36Z</time>
      </trkpt>
      <trkpt lat="51.188243518716" lon="4.631385568857">
        <ele>3.2</ele>
        <time>2020-07-05T13:37:40Z</time>
      </trkpt>
      <trkpt lat="51.188647442477" lon="4.63201479809">
        <ele>3</ele>
        <time>2020-07-05T13:37:50Z</time>
      </trkpt>
      <trkpt lat="51.189057149749" lon="4.632588203869">
        <ele>2.4</ele>
        <time>2020-07-05T13:37:58Z</time>
      </trkpt>
      <trkpt lat="51.189477250577" lon="4.633166303512">
        <ele>1.8</ele>
        <time>2020-07-05T13:38:06Z</time>
      </trkpt>
      <trkpt lat="51.189887544582" lon="4.633743313508">
        <ele>1.4</ele>
        <time>2020-07-05T13:38:15Z</time>
      </trkpt>
      <trkpt lat="51.190318877156" lon="4.634389222722">
        <ele>2</ele>
        <time>2020-07-05T13:38:24Z</time>
      </trkpt>
      <trkpt lat="51.190698325769" lon="4.6350398258">
        <ele>2.4</ele>
        <time>2020-07-05T13:38:33Z</time>
      </trkpt>
      <trkpt lat="51.191066458817" lon="4.63576486015">
        <ele>4</ele>
        <time>2020-07-05T13:38:42Z</time>
      </trkpt>
      <trkpt lat="51.19140483612" lon="4.636448152638">
        <ele>4.6</ele>
        <time>2020-07-05T13:38:51Z</time>
      </trkpt>
      <trkpt lat="51.191529558792" lon="4.636768760313">
        <ele>4.6</ele>
        <time>2020-07-05T13:38:55Z</time>
      </trkpt>
      <trkpt lat="51.191893417071" lon="4.637466302031">
        <ele>5.8</ele>
        <time>2020-07-05T13:39:05Z</time>
      </trkpt>
      <trkpt lat="51.192180329508" lon="4.638022441096">
        <ele>5.8</ele>
        <time>2020-07-05T13:39:16Z</time>
      </trkpt>
      <trkpt lat="51.19219273472" lon="4.637673334961">
        <ele>5.6</ele>
        <time>2020-07-05T13:40:09Z</time>
      </trkpt>
      <trkpt lat="51.192561454501" lon="4.6384009677">
        <ele>7</ele>
        <time>2020-07-05T13:40:20Z</time>
      </trkpt>
      <trkpt lat="51.192936041612" lon="4.639055510271">
        <ele>9.6</ele>
        <time>2020-07-05T13:40:30Z</time>
      </trkpt>
      <trkpt lat="51.193352035309" lon="4.639719775846">
        <ele>11.6</ele>
        <time>2020-07-05T13:40:41Z</time>
      </trkpt>
      <trkpt lat="51.193738273261" lon="4.640245740071">
        <ele>11.8</ele>
        <time>2020-07-05T13:40:50Z</time>
      </trkpt>
      <trkpt lat="51.193820751157" lon="4.640271472504">
        <ele>11.6</ele>
        <time>2020-07-05T13:40:52Z</time>
      </trkpt>
      <trkpt lat="51.193936840472" lon="4.639421128749">
        <ele>10.6</ele>
        <time>2020-07-05T13:41:05Z</time>
      </trkpt>
      <trkpt lat="51.193912868238" lon="4.6384680229">
        <ele>8.8</ele>
        <time>2020-07-05T13:41:13Z</time>
      </trkpt>
      <trkpt lat="51.193950754426" lon="4.638255625554">
        <ele>8.2</ele>
        <time>2020-07-05T13:41:15Z</time>
      </trkpt>
      <trkpt lat="51.194053348882" lon="4.638155545668">
        <ele>7.8</ele>
        <time>2020-07-05T13:41:17Z</time>
      </trkpt>
      <trkpt lat="51.19418008321" lon="4.638183792671">
        <ele>7.4</ele>
        <time>2020-07-05T13:41:19Z</time>
      </trkpt>
      <trkpt lat="51.194756590292" lon="4.638430220531">
        <ele>7.2</ele>
        <time>2020-07-05T13:41:28Z</time>
      </trkpt>
      <trkpt lat="51.195321865628" lon="4.638624932068">
        <ele>8.2</ele>
        <time>2020-07-05T13:41:36Z</time>
      </trkpt>
      <trkpt lat="51.195395039615" lon="4.638675810201">
        <ele>8</ele>
        <time>2020-07-05T13:41:37Z</time>
      </trkpt>
      <trkpt lat="51.195670468849" lon="4.638920561681">
        <ele>7.2</ele>
        <time>2020-07-05T13:41:41Z</time>
      </trkpt>
      <trkpt lat="51.195815475719" lon="4.638969511977">
        <ele>7</ele>
        <time>2020-07-05T13:41:43Z</time>
      </trkpt>
      <trkpt lat="51.195956710734" lon="4.638928273029">
        <ele>6.8</ele>
        <time>2020-07-05T13:41:45Z</time>
      </trkpt>
      <trkpt lat="51.196039104811" lon="4.638772621146">
        <ele>6.6</ele>
        <time>2020-07-05T13:41:47Z</time>
      </trkpt>
      <trkpt lat="51.196068022366" lon="4.638570114442">
        <ele>6.2</ele>
        <time>2020-07-05T13:41:49Z</time>
      </trkpt>
      <trkpt lat="51.196137675955" lon="4.637711472606">
        <ele>6.2</ele>
        <time>2020-07-05T13:41:57Z</time>
      </trkpt>
      <trkpt lat="51.196169610994" lon="4.637297239108">
        <ele>6.2</ele>
        <time>2020-07-05T13:42:01Z</time>
      </trkpt>
      <trkpt lat="51.196167599338" lon="4.637091379644">
        <ele>6</ele>
        <time>2020-07-05T13:42:03Z</time>
      </trkpt>
      <trkpt lat="51.196266505758" lon="4.636149421722">
        <ele>5.4</ele>
        <time>2020-07-05T13:42:12Z</time>
      </trkpt>
      <trkpt lat="51.196355521536" lon="4.635248618929">
        <ele>5.2</ele>
        <time>2020-07-05T13:42:21Z</time>
      </trkpt>
      <trkpt lat="51.196468006634" lon="4.634384864134">
        <ele>5</ele>
        <time>2020-07-05T13:42:30Z</time>
      </trkpt>
      <trkpt lat="51.196589963279" lon="4.633512056887">
        <ele>4.6</ele>
        <time>2020-07-05T13:42:39Z</time>
      </trkpt>
      <trkpt lat="51.196634638806" lon="4.633328912372">
        <ele>4.6</ele>
        <time>2020-07-05T13:42:41Z</time>
      </trkpt>
      <trkpt lat="51.196770257948" lon="4.632460379894">
        <ele>4.4</ele>
        <time>2020-07-05T13:42:50Z</time>
      </trkpt>
      <trkpt lat="51.196894729163" lon="4.631531749193">
        <ele>4.6</ele>
        <time>2020-07-05T13:43:00Z</time>
      </trkpt>
      <trkpt lat="51.196989612271" lon="4.63068039961">
        <ele>4.2</ele>
        <time>2020-07-05T13:43:09Z</time>
      </trkpt>
      <trkpt lat="51.196973267566" lon="4.630334981511">
        <ele>4.2</ele>
        <time>2020-07-05T13:43:13Z</time>
      </trkpt>
      <trkpt lat="51.196934710826" lon="4.630191064288">
        <ele>4.2</ele>
        <time>2020-07-05T13:43:15Z</time>
      </trkpt>
      <trkpt lat="51.196565991045" lon="4.629611120627">
        <ele>5.6</ele>
        <time>2020-07-05T13:43:25Z</time>
      </trkpt>
      <trkpt lat="51.19652701521" lon="4.629444739912">
        <ele>5.6</ele>
        <time>2020-07-05T13:43:27Z</time>
      </trkpt>
      <trkpt lat="51.196570181995" lon="4.629265031976">
        <ele>5.6</ele>
        <time>2020-07-05T13:43:29Z</time>
      </trkpt>
      <trkpt lat="51.196758439469" lon="4.628502111438">
        <ele>6.4</ele>
        <time>2020-07-05T13:43:38Z</time>
      </trkpt>
      <trkpt lat="51.19700478351" lon="4.62769225226">
        <ele>6.4</ele>
        <time>2020-07-05T13:43:48Z</time>
      </trkpt>
      <trkpt lat="51.197100588627" lon="4.627595273677">
        <ele>6.6</ele>
        <time>2020-07-05T13:43:50Z</time>
      </trkpt>
      <trkpt lat="51.197338802225" lon="4.627512795781">
        <ele>6.6</ele>
        <time>2020-07-05T13:43:54Z</time>
      </trkpt>
      <trkpt lat="51.197573495425" lon="4.627472981756">
        <ele>6.6</ele>
        <time>2020-07-05T13:43:58Z</time>
      </trkpt>
      <trkpt lat="51.19766946818" lon="4.627416068655">
        <ele>6.6</ele>
        <time>2020-07-05T13:44:00Z</time>
      </trkpt>
      <trkpt lat="51.197740546692" lon="4.62731339038">
        <ele>6.4</ele>
        <time>2020-07-05T13:44:02Z</time>
      </trkpt>
      <trkpt lat="51.197968869648" lon="4.626454077992">
        <ele>6.4</ele>
        <time>2020-07-05T13:44:12Z</time>
      </trkpt>
      <trkpt lat="51.198135585639" lon="4.625801379439">
        <ele>5.8</ele>
        <time>2020-07-05T13:44:20Z</time>
      </trkpt>
      <trkpt lat="51.19836097493" lon="4.625008032604">
        <ele>5.8</ele>
        <time>2020-07-05T13:44:29Z</time>
      </trkpt>
      <trkpt lat="51.198594075569" lon="4.624189372431">
        <ele>5.2</ele>
        <time>2020-07-05T13:44:39Z</time>
      </trkpt>
      <trkpt lat="51.198821476516" lon="4.623347745852">
        <ele>5.2</ele>
        <time>2020-07-05T13:44:48Z</time>
      </trkpt>
      <trkpt lat="51.199065222168" lon="4.622513411526">
        <ele>5.2</ele>
        <time>2020-07-05T13:44:58Z</time>
      </trkpt>
      <trkpt lat="51.199325061068" lon="4.621661223753">
        <ele>5.6</ele>
        <time>2020-07-05T13:45:08Z</time>
      </trkpt>
      <trkpt lat="51.19957970319" lon="4.620890172772">
        <ele>6</ele>
        <time>2020-07-05T13:45:17Z</time>
      </trkpt>
      <trkpt lat="51.199842224298" lon="4.620057598645">
        <ele>5.6</ele>
        <time>2020-07-05T13:45:27Z</time>
      </trkpt>
      <trkpt lat="51.199991170661" lon="4.6196171298">
        <ele>5</ele>
        <time>2020-07-05T13:45:33Z</time>
      </trkpt>
      <trkpt lat="51.200264672058" lon="4.618775251764">
        <ele>5</ele>
        <time>2020-07-05T13:45:42Z</time>
      </trkpt>
      <trkpt lat="51.200512776298" lon="4.617969834993">
        <ele>5</ele>
        <time>2020-07-05T13:45:51Z</time>
      </trkpt>
      <trkpt lat="51.20076825661" lon="4.617189228646">
        <ele>5</ele>
        <time>2020-07-05T13:46:00Z</time>
      </trkpt>
      <trkpt lat="51.201020467981" lon="4.616395714173">
        <ele>4.8</ele>
        <time>2020-07-05T13:46:09Z</time>
      </trkpt>
      <trkpt lat="51.201276367388" lon="4.615629776151">
        <ele>4.6</ele>
        <time>2020-07-05T13:46:17Z</time>
      </trkpt>
      <trkpt lat="51.201523884895" lon="4.614857384066">
        <ele>4.8</ele>
        <time>2020-07-05T13:46:26Z</time>
      </trkpt>
      <trkpt lat="51.201790932229" lon="4.614078454099">
        <ele>4.6</ele>
        <time>2020-07-05T13:46:35Z</time>
      </trkpt>
      <trkpt lat="51.20204398179" lon="4.613303379806">
        <ele>4.6</ele>
        <time>2020-07-05T13:46:44Z</time>
      </trkpt>
      <trkpt lat="51.202134590129" lon="4.613021831785">
        <ele>4.4</ele>
        <time>2020-07-05T13:46:48Z</time>
      </trkpt>
      <trkpt lat="51.202186641728" lon="4.612886967014">
        <ele>4.4</ele>
        <time>2020-07-05T13:46:50Z</time>
      </trkpt>
      <trkpt lat="51.202375402116" lon="4.612289924277">
        <ele>4.4</ele>
        <time>2020-07-05T13:46:58Z</time>
      </trkpt>
      <trkpt lat="51.202617806664" lon="4.611489871922">
        <ele>4.2</ele>
        <time>2020-07-05T13:47:08Z</time>
      </trkpt>
      <trkpt lat="51.202868174017" lon="4.610701889503">
        <ele>4.2</ele>
        <time>2020-07-05T13:47:17Z</time>
      </trkpt>
      <trkpt lat="51.203125582166" lon="4.609907704478">
        <ele>4.2</ele>
        <time>2020-07-05T13:47:26Z</time>
      </trkpt>
      <trkpt lat="51.203281401687" lon="4.609418955889">
        <ele>4.4</ele>
        <time>2020-07-05T13:47:32Z</time>
      </trkpt>
      <trkpt lat="51.203550879772" lon="4.608577748405">
        <ele>4.6</ele>
        <time>2020-07-05T13:47:42Z</time>
      </trkpt>
      <trkpt lat="51.203662107585" lon="4.608186648951">
        <ele>4.8</ele>
        <time>2020-07-05T13:47:47Z</time>
      </trkpt>
      <trkpt lat="51.203762355109" lon="4.60793946672">
        <ele>4.8</ele>
        <time>2020-07-05T13:47:51Z</time>
      </trkpt>
      <trkpt lat="51.203855226561" lon="4.607640987261">
        <ele>4.8</ele>
        <time>2020-07-05T13:47:55Z</time>
      </trkpt>
      <trkpt lat="51.203938458828" lon="4.607392044831">
        <ele>4.8</ele>
        <time>2020-07-05T13:47:58Z</time>
      </trkpt>
      <trkpt lat="51.204095954729" lon="4.606883179682">
        <ele>4.8</ele>
        <time>2020-07-05T13:48:04Z</time>
      </trkpt>
      <trkpt lat="51.204379262949" lon="4.6060384518">
        <ele>4.2</ele>
        <time>2020-07-05T13:48:14Z</time>
      </trkpt>
      <trkpt lat="51.204730213102" lon="4.605350046353">
        <ele>3.8</ele>
        <time>2020-07-05T13:48:23Z</time>
      </trkpt>
      <trkpt lat="51.204890810306" lon="4.60499490525">
        <ele>3.8</ele>
        <time>2020-07-05T13:48:28Z</time>
      </trkpt>
      <trkpt lat="51.205178225657" lon="4.604160403286">
        <ele>3.4</ele>
        <time>2020-07-05T13:48:38Z</time>
      </trkpt>
      <trkpt lat="51.205426246078" lon="4.603361775854">
        <ele>3.2</ele>
        <time>2020-07-05T13:48:48Z</time>
      </trkpt>
      <trkpt lat="51.205624478013" lon="4.602721482513">
        <ele>3.2</ele>
        <time>2020-07-05T13:48:56Z</time>
      </trkpt>
      <trkpt lat="51.205883813999" lon="4.601911288059">
        <ele>3.4</ele>
        <time>2020-07-05T13:49:06Z</time>
      </trkpt>
      <trkpt lat="51.206142647071" lon="4.60114677496">
        <ele>3.4</ele>
        <time>2020-07-05T13:49:16Z</time>
      </trkpt>
      <trkpt lat="51.206407347473" lon="4.600295006282">
        <ele>3.8</ele>
        <time>2020-07-05T13:49:26Z</time>
      </trkpt>
      <trkpt lat="51.20643442101" lon="4.600209594721">
        <ele>3.8</ele>
        <time>2020-07-05T13:49:27Z</time>
      </trkpt>
      <trkpt lat="51.206709850244" lon="4.599465030544">
        <ele>3.4</ele>
        <time>2020-07-05T13:49:36Z</time>
      </trkpt>
      <trkpt lat="51.20695912795" lon="4.598630863856">
        <ele>3.4</ele>
        <time>2020-07-05T13:49:45Z</time>
      </trkpt>
      <trkpt lat="51.207202873602" lon="4.597833745166">
        <ele>3.6</ele>
        <time>2020-07-05T13:49:54Z</time>
      </trkpt>
      <trkpt lat="51.207316029252" lon="4.597460247702">
        <ele>3.8</ele>
        <time>2020-07-05T13:49:59Z</time>
      </trkpt>
      <trkpt lat="51.207404542116" lon="4.597254723514">
        <ele>3.8</ele>
        <time>2020-07-05T13:50:02Z</time>
      </trkpt>
      <trkpt lat="51.207653736003" lon="4.596485851827">
        <ele>4</ele>
        <time>2020-07-05T13:50:12Z</time>
      </trkpt>
      <trkpt lat="51.207915251283" lon="4.595694432829">
        <ele>4</ele>
        <time>2020-07-05T13:50:22Z</time>
      </trkpt>
      <trkpt lat="51.208124128231" lon="4.595010805065">
        <ele>4.6</ele>
        <time>2020-07-05T13:50:29Z</time>
      </trkpt>
      <trkpt lat="51.20834884697" lon="4.594132968678">
        <ele>8</ele>
        <time>2020-07-05T13:50:39Z</time>
      </trkpt>
      <trkpt lat="51.208572895157" lon="4.593375747832">
        <ele>10.4</ele>
        <time>2020-07-05T13:50:48Z</time>
      </trkpt>
      <trkpt lat="51.208565854361" lon="4.593239877233">
        <ele>10.6</ele>
        <time>2020-07-05T13:50:50Z</time>
      </trkpt>
      <trkpt lat="51.208506678147" lon="4.59310015096">
        <ele>10.6</ele>
        <time>2020-07-05T13:50:52Z</time>
      </trkpt>
      <trkpt lat="51.208180286961" lon="4.592370003651">
        <ele>10</ele>
        <time>2020-07-05T13:51:02Z</time>
      </trkpt>
      <trkpt lat="51.207869737566" lon="4.591637341772">
        <ele>8.8</ele>
        <time>2020-07-05T13:51:12Z</time>
      </trkpt>
      <trkpt lat="51.207546363864" lon="4.590878025451">
        <ele>7.6</ele>
        <time>2020-07-05T13:51:22Z</time>
      </trkpt>
      <trkpt lat="51.207233970451" lon="4.590154499843">
        <ele>7.8</ele>
        <time>2020-07-05T13:51:32Z</time>
      </trkpt>
      <trkpt lat="51.206927025273" lon="4.589405241802">
        <ele>7</ele>
        <time>2020-07-05T13:51:42Z</time>
      </trkpt>
      <trkpt lat="51.206804398076" lon="4.589061500083">
        <ele>7</ele>
        <time>2020-07-05T13:51:47Z</time>
      </trkpt>
      <trkpt lat="51.206720914352" lon="4.588478203662">
        <ele>7</ele>
        <time>2020-07-05T13:51:55Z</time>
      </trkpt>
      <trkpt lat="51.206904561781" lon="4.587609252089">
        <ele>7.2</ele>
        <time>2020-07-05T13:52:05Z</time>
      </trkpt>
      <trkpt lat="51.207198347376" lon="4.58680869682">
        <ele>7.4</ele>
        <time>2020-07-05T13:52:15Z</time>
      </trkpt>
      <trkpt lat="51.2075751976" lon="4.586089110705">
        <ele>8</ele>
        <time>2020-07-05T13:52:25Z</time>
      </trkpt>
      <trkpt lat="51.207969230719" lon="4.585466838449">
        <ele>8.2</ele>
        <time>2020-07-05T13:52:34Z</time>
      </trkpt>
      <trkpt lat="51.208398635456" lon="4.584831909524">
        <ele>9</ele>
        <time>2020-07-05T13:52:44Z</time>
      </trkpt>
      <trkpt lat="51.208841283595" lon="4.584181390265">
        <ele>9.2</ele>
        <time>2020-07-05T13:52:54Z</time>
      </trkpt>
      <trkpt lat="51.209273538178" lon="4.583543192399">
        <ele>9</ele>
        <time>2020-07-05T13:53:03Z</time>
      </trkpt>
      <trkpt lat="51.20966731984" lon="4.582845650681">
        <ele>10.8</ele>
        <time>2020-07-05T13:53:13Z</time>
      </trkpt>
      <trkpt lat="51.209987173144" lon="4.582143415099">
        <ele>12</ele>
        <time>2020-07-05T13:53:23Z</time>
      </trkpt>
      <trkpt lat="51.210290765562" lon="4.581320815433">
        <ele>14</ele>
        <time>2020-07-05T13:53:33Z</time>
      </trkpt>
      <trkpt lat="51.210569128461" lon="4.580568120813">
        <ele>14.2</ele>
        <time>2020-07-05T13:53:42Z</time>
      </trkpt>
      <trkpt lat="51.21085587326" lon="4.579809475044">
        <ele>14</ele>
        <time>2020-07-05T13:53:51Z</time>
      </trkpt>
      <trkpt lat="51.211140103489" lon="4.578990731052">
        <ele>17</ele>
        <time>2020-07-05T13:54:00Z</time>
      </trkpt>
      <trkpt lat="51.211428608487" lon="4.578258991182">
        <ele>16.6</ele>
        <time>2020-07-05T13:54:09Z</time>
      </trkpt>
      <trkpt lat="51.211708983042" lon="4.577439995733">
        <ele>16.4</ele>
        <time>2020-07-05T13:54:19Z</time>
      </trkpt>
      <trkpt lat="51.211926325709" lon="4.576609097986">
        <ele>21.2</ele>
        <time>2020-07-05T13:54:28Z</time>
      </trkpt>
      <trkpt lat="51.212198486002" lon="4.575859001755">
        <ele>19.4</ele>
        <time>2020-07-05T13:54:38Z</time>
      </trkpt>
      <trkpt lat="51.212457905807" lon="4.575102451461">
        <ele>20.2</ele>
        <time>2020-07-05T13:54:47Z</time>
      </trkpt>
      <trkpt lat="51.212593189673" lon="4.574693330922">
        <ele>20</ele>
        <time>2020-07-05T13:54:52Z</time>
      </trkpt>
      <trkpt lat="51.214345593506" lon="4.576482950391">
        <ele>16.8</ele>
        <time>2020-07-05T13:56:07Z</time>
      </trkpt>
      <trkpt lat="51.214837946312" lon="4.576889137265">
        <ele>17</ele>
        <time>2020-07-05T13:56:17Z</time>
      </trkpt>
      <trkpt lat="51.21535527718" lon="4.577322984409">
        <ele>16</ele>
        <time>2020-07-05T13:56:25Z</time>
      </trkpt>
      <trkpt lat="51.216198999234" lon="4.578411038848">
        <ele>12.4</ele>
        <time>2020-07-05T13:56:38Z</time>
      </trkpt>
      <trkpt lat="51.216526815343" lon="4.579105898358">
        <ele>10.8</ele>
        <time>2020-07-05T13:56:44Z</time>
      </trkpt>
      <trkpt lat="51.21674667258" lon="4.579924055617">
        <ele>8.6</ele>
        <time>2020-07-05T13:56:50Z</time>
      </trkpt>
      <trkpt lat="51.216916573693" lon="4.580874730715">
        <ele>6.4</ele>
        <time>2020-07-05T13:56:57Z</time>
      </trkpt>
      <trkpt lat="51.216945407429" lon="4.581819119388">
        <ele>3.8</ele>
        <time>2020-07-05T13:57:05Z</time>
      </trkpt>
      <trkpt lat="51.216892182364" lon="4.582697626327">
        <ele>3.4</ele>
        <time>2020-07-05T13:57:13Z</time>
      </trkpt>
      <trkpt lat="51.216745247657" lon="4.583562889864">
        <ele>3</ele>
        <time>2020-07-05T13:57:21Z</time>
      </trkpt>
      <trkpt lat="51.216524049316" lon="4.584430332695">
        <ele>3.4</ele>
        <time>2020-07-05T13:57:30Z</time>
      </trkpt>
      <trkpt lat="51.216334031643" lon="4.584958560033">
        <ele>3.6</ele>
        <time>2020-07-05T13:57:36Z</time>
      </trkpt>
      <trkpt lat="51.216365799044" lon="4.585136423951">
        <ele>3</ele>
        <time>2020-07-05T13:57:38Z</time>
      </trkpt>
      <trkpt lat="51.216466968577" lon="4.585228624851">
        <ele>3</ele>
        <time>2020-07-05T13:57:40Z</time>
      </trkpt>
      <trkpt lat="51.217047834247" lon="4.585313952593">
        <ele>3</ele>
        <time>2020-07-05T13:57:49Z</time>
      </trkpt>
      <trkpt lat="51.217630711573" lon="4.585427694976">
        <ele>3.6</ele>
        <time>2020-07-05T13:57:57Z</time>
      </trkpt>
      <trkpt lat="51.218228760138" lon="4.585527523405">
        <ele>4.2</ele>
        <time>2020-07-05T13:58:05Z</time>
      </trkpt>
      <trkpt lat="51.218726644998" lon="4.585609163111">
        <ele>3.4</ele>
        <time>2020-07-05T13:58:12Z</time>
      </trkpt>
      <trkpt lat="51.218851702946" lon="4.585499360221">
        <ele>3.2</ele>
        <time>2020-07-05T13:58:14Z</time>
      </trkpt>
      <trkpt lat="51.21887483699" lon="4.585286376142">
        <ele>2.2</ele>
        <time>2020-07-05T13:58:16Z</time>
      </trkpt>
      <trkpt lat="51.218944658217" lon="4.584383058779">
        <ele>0</ele>
        <time>2020-07-05T13:58:25Z</time>
      </trkpt>
      <trkpt lat="51.218983382595" lon="4.583453589888">
        <ele>0</ele>
        <time>2020-07-05T13:58:35Z</time>
      </trkpt>
      <trkpt lat="51.218982712043" lon="4.583291903037">
        <ele>0</ele>
        <time>2020-07-05T13:58:37Z</time>
      </trkpt>
      <trkpt lat="51.219045660112" lon="4.583178412111">
        <ele>0</ele>
        <time>2020-07-05T13:58:39Z</time>
      </trkpt>
      <trkpt lat="51.219369955823" lon="4.582991328103">
        <ele>0</ele>
        <time>2020-07-05T13:58:45Z</time>
      </trkpt>
      <trkpt lat="51.219436759566" lon="4.582855541323">
        <ele>0</ele>
        <time>2020-07-05T13:58:47Z</time>
      </trkpt>
      <trkpt lat="51.219412535875" lon="4.582699386526">
        <ele>0</ele>
        <time>2020-07-05T13:58:49Z</time>
      </trkpt>
      <trkpt lat="51.219116151891" lon="4.581978794583">
        <ele>0</ele>
        <time>2020-07-05T13:58:58Z</time>
      </trkpt>
      <trkpt lat="51.218805183401" lon="4.581214868217">
        <ele>0</ele>
        <time>2020-07-05T13:59:08Z</time>
      </trkpt>
      <trkpt lat="51.218445264615" lon="4.580463347063">
        <ele>0</ele>
        <time>2020-07-05T13:59:18Z</time>
      </trkpt>
      <trkpt lat="51.218095907023" lon="4.580002258744">
        <ele>0</ele>
        <time>2020-07-05T13:59:26Z</time>
      </trkpt>
      <trkpt lat="51.217648397382" lon="4.57952147296">
        <ele>0</ele>
        <time>2020-07-05T13:59:38Z</time>
      </trkpt>
      <trkpt lat="51.217481429934" lon="4.579366323991">
        <ele>0</ele>
        <time>2020-07-05T13:59:43Z</time>
      </trkpt>
      <trkpt lat="51.217368944836" lon="4.579275212738">
        <ele>3.8</ele>
        <time>2020-07-05T14:00:38Z</time>
      </trkpt>
      <trkpt lat="51.216877178763" lon="4.578754948205">
        <ele>3.2</ele>
        <time>2020-07-05T14:00:52Z</time>
      </trkpt>
      <trkpt lat="51.216723957631" lon="4.578575324088">
        <ele>2.4</ele>
        <time>2020-07-05T14:00:55Z</time>
      </trkpt>
      <trkpt lat="51.216378371894" lon="4.577851295566">
        <ele>1.6</ele>
        <time>2020-07-05T14:01:04Z</time>
      </trkpt>
      <trkpt lat="51.216186845479" lon="4.577490203314">
        <ele>1.6</ele>
        <time>2020-07-05T14:01:09Z</time>
      </trkpt>
      <trkpt lat="51.215783089356" lon="4.576882515564">
        <ele>2.2</ele>
        <time>2020-07-05T14:01:18Z</time>
      </trkpt>
      <trkpt lat="51.215450160288" lon="4.57631958716">
        <ele>2.8</ele>
        <time>2020-07-05T14:01:28Z</time>
      </trkpt>
      <trkpt lat="51.215335495896" lon="4.576181201991">
        <ele>3.2</ele>
        <time>2020-07-05T14:01:31Z</time>
      </trkpt>
      <trkpt lat="51.215260226434" lon="4.576105345796">
        <ele>3.4</ele>
        <time>2020-07-05T14:01:33Z</time>
      </trkpt>
      <trkpt lat="51.215386876943" lon="4.575486342481">
        <ele>3.4</ele>
        <time>2020-07-05T14:01:43Z</time>
      </trkpt>
      <trkpt lat="51.215414621032" lon="4.575415850702">
        <ele>3.4</ele>
        <time>2020-07-05T14:01:44Z</time>
      </trkpt>
      <trkpt lat="51.215676723045" lon="4.574651169965">
        <ele>3.4</ele>
        <time>2020-07-05T14:01:53Z</time>
      </trkpt>
      <trkpt lat="51.215940836714" lon="4.573843992995">
        <ele>3.4</ele>
        <time>2020-07-05T14:02:02Z</time>
      </trkpt>
      <trkpt lat="51.216172596249" lon="4.573066068856">
        <ele>3</ele>
        <time>2020-07-05T14:02:11Z</time>
      </trkpt>
      <trkpt lat="51.216429752941" lon="4.572263334293">
        <ele>3</ele>
        <time>2020-07-05T14:02:20Z</time>
      </trkpt>
      <trkpt lat="51.216673666231" lon="4.571493205321">
        <ele>3.2</ele>
        <time>2020-07-05T14:02:29Z</time>
      </trkpt>
      <trkpt lat="51.216923195394" lon="4.570706396368">
        <ele>4</ele>
        <time>2020-07-05T14:02:39Z</time>
      </trkpt>
      <trkpt lat="51.216939037185" lon="4.570645627593">
        <ele>3.8</ele>
        <time>2020-07-05T14:02:40Z</time>
      </trkpt>
      <trkpt lat="51.217069459549" lon="4.570245727144">
        <ele>3.2</ele>
        <time>2020-07-05T14:02:47Z</time>
      </trkpt>
      <trkpt lat="51.217336842159" lon="4.569409129705">
        <ele>3</ele>
        <time>2020-07-05T14:02:57Z</time>
      </trkpt>
      <trkpt lat="51.217598944172" lon="4.568595750129">
        <ele>3.2</ele>
        <time>2020-07-05T14:03:07Z</time>
      </trkpt>
      <trkpt lat="51.217831206621" lon="4.567863591164">
        <ele>3</ele>
        <time>2020-07-05T14:03:16Z</time>
      </trkpt>
      <trkpt lat="51.217891975396" lon="4.56770215577">
        <ele>3</ele>
        <time>2020-07-05T14:03:18Z</time>
      </trkpt>
      <trkpt lat="51.218138654713" lon="4.566876873896">
        <ele>2.6</ele>
        <time>2020-07-05T14:03:28Z</time>
      </trkpt>
      <trkpt lat="51.218385585487" lon="4.566112863711">
        <ele>2.6</ele>
        <time>2020-07-05T14:03:37Z</time>
      </trkpt>
      <trkpt lat="51.218632432442" lon="4.565322031446">
        <ele>2.6</ele>
        <time>2020-07-05T14:03:46Z</time>
      </trkpt>
      <trkpt lat="51.218776601122" lon="4.564885669732">
        <ele>2.4</ele>
        <time>2020-07-05T14:03:51Z</time>
      </trkpt>
      <trkpt lat="51.218854385154" lon="4.564635805293">
        <ele>2.4</ele>
        <time>2020-07-05T14:03:54Z</time>
      </trkpt>
      <trkpt lat="51.21910198648" lon="4.563831897264">
        <ele>3.8</ele>
        <time>2020-07-05T14:04:04Z</time>
      </trkpt>
      <trkpt lat="51.219363417941" lon="4.563017344222">
        <ele>3.6</ele>
        <time>2020-07-05T14:04:14Z</time>
      </trkpt>
      <trkpt lat="51.21941127859" lon="4.56285993214">
        <ele>3.6</ele>
        <time>2020-07-05T14:04:16Z</time>
      </trkpt>
      <trkpt lat="51.219463078732" lon="4.562705034628">
        <ele>3.6</ele>
        <time>2020-07-05T14:04:18Z</time>
      </trkpt>
      <trkpt lat="51.219514292141" lon="4.562544185967">
        <ele>3.8</ele>
        <time>2020-07-05T14:04:20Z</time>
      </trkpt>
      <trkpt lat="51.21961579695" lon="4.562214944935">
        <ele>3.8</ele>
        <time>2020-07-05T14:04:24Z</time>
      </trkpt>
      <trkpt lat="51.219838168757" lon="4.561491503146">
        <ele>3.8</ele>
        <time>2020-07-05T14:04:34Z</time>
      </trkpt>
      <trkpt lat="51.220068000455" lon="4.560641410848">
        <ele>3.8</ele>
        <time>2020-07-05T14:04:45Z</time>
      </trkpt>
      <trkpt lat="51.220340747481" lon="4.559825935797">
        <ele>3.8</ele>
        <time>2020-07-05T14:04:55Z</time>
      </trkpt>
      <trkpt lat="51.220593629404" lon="4.559054968635">
        <ele>3.4</ele>
        <time>2020-07-05T14:05:04Z</time>
      </trkpt>
      <trkpt lat="51.220735199695" lon="4.558634700169">
        <ele>3.2</ele>
        <time>2020-07-05T14:05:09Z</time>
      </trkpt>
      <trkpt lat="51.221004007228" lon="4.557784188776">
        <ele>3</ele>
        <time>2020-07-05T14:05:19Z</time>
      </trkpt>
      <trkpt lat="51.221265438689" lon="4.556956811427">
        <ele>3.2</ele>
        <time>2020-07-05T14:05:29Z</time>
      </trkpt>
      <trkpt lat="51.221552267307" lon="4.556118537608">
        <ele>3.2</ele>
        <time>2020-07-05T14:05:39Z</time>
      </trkpt>
      <trkpt lat="51.221762233902" lon="4.555397023656">
        <ele>2.8</ele>
        <time>2020-07-05T14:05:48Z</time>
      </trkpt>
      <trkpt lat="51.221829037645" lon="4.555143638819">
        <ele>3</ele>
        <time>2020-07-05T14:05:52Z</time>
      </trkpt>
      <trkpt lat="51.222093067495" lon="4.554307795751">
        <ele>2.8</ele>
        <time>2020-07-05T14:06:04Z</time>
      </trkpt>
      <trkpt lat="51.222186441861" lon="4.553974363769">
        <ele>3</ele>
        <time>2020-07-05T14:06:08Z</time>
      </trkpt>
      <trkpt lat="51.222442257449" lon="4.553168695541">
        <ele>2.8</ele>
        <time>2020-07-05T14:06:18Z</time>
      </trkpt>
      <trkpt lat="51.22268860149" lon="4.55238423352">
        <ele>2.8</ele>
        <time>2020-07-05T14:06:29Z</time>
      </trkpt>
      <trkpt lat="51.222704275643" lon="4.552321620727">
        <ele>2.8</ele>
        <time>2020-07-05T14:06:30Z</time>
      </trkpt>
      <trkpt lat="51.222781305304" lon="4.552092208124">
        <ele>2.8</ele>
        <time>2020-07-05T14:06:34Z</time>
      </trkpt>
      <trkpt lat="51.222836458206" lon="4.551899089148">
        <ele>2.8</ele>
        <time>2020-07-05T14:06:37Z</time>
      </trkpt>
      <trkpt lat="51.223100320418" lon="4.551061066786">
        <ele>3.2</ele>
        <time>2020-07-05T14:06:48Z</time>
      </trkpt>
      <trkpt lat="51.223212554059" lon="4.550720845465">
        <ele>3.4</ele>
        <time>2020-07-05T14:06:52Z</time>
      </trkpt>
      <trkpt lat="51.223279357802" lon="4.550556811682">
        <ele>3.6</ele>
        <time>2020-07-05T14:06:54Z</time>
      </trkpt>
      <trkpt lat="51.223503741265" lon="4.549774696593">
        <ele>4</ele>
        <time>2020-07-05T14:07:03Z</time>
      </trkpt>
      <trkpt lat="51.223746648727" lon="4.549029545683">
        <ele>3.8</ele>
        <time>2020-07-05T14:07:13Z</time>
      </trkpt>
      <trkpt lat="51.223980671375" lon="4.5482536332">
        <ele>4.6</ele>
        <time>2020-07-05T14:07:22Z</time>
      </trkpt>
      <trkpt lat="51.224248389261" lon="4.547420388521">
        <ele>4.8</ele>
        <time>2020-07-05T14:07:32Z</time>
      </trkpt>
      <trkpt lat="51.224497666967" lon="4.546647996436">
        <ele>5.2</ele>
        <time>2020-07-05T14:07:42Z</time>
      </trkpt>
      <trkpt lat="51.22474049061" lon="4.545874347066">
        <ele>5.8</ele>
        <time>2020-07-05T14:07:52Z</time>
      </trkpt>
      <trkpt lat="51.22498943304" lon="4.545082844249">
        <ele>5.4</ele>
        <time>2020-07-05T14:08:02Z</time>
      </trkpt>
      <trkpt lat="51.225213565046" lon="4.544390499309">
        <ele>5.6</ele>
        <time>2020-07-05T14:08:11Z</time>
      </trkpt>
      <trkpt lat="51.225428560781" lon="4.543696645627">
        <ele>5.6</ele>
        <time>2020-07-05T14:10:50Z</time>
      </trkpt>
      <trkpt lat="51.225449012617" lon="4.543634871024">
        <ele>5.6</ele>
        <time>2020-07-05T14:10:51Z</time>
      </trkpt>
      <trkpt lat="51.225549930693" lon="4.543105889315">
        <ele>5</ele>
        <time>2020-07-05T14:10:58Z</time>
      </trkpt>
      <trkpt lat="51.225662918705" lon="4.542846218053">
        <ele>5</ele>
        <time>2020-07-05T14:11:02Z</time>
      </trkpt>
      <trkpt lat="51.225714718847" lon="4.542730715471">
        <ele>5</ele>
        <time>2020-07-05T14:11:04Z</time>
      </trkpt>
      <trkpt lat="51.225977910507" lon="4.541915994791">
        <ele>5.2</ele>
        <time>2020-07-05T14:11:15Z</time>
      </trkpt>
      <trkpt lat="51.22623414519" lon="4.541117032083">
        <ele>4.6</ele>
        <time>2020-07-05T14:11:24Z</time>
      </trkpt>
      <trkpt lat="51.226487362389" lon="4.540327373284">
        <ele>4.2</ele>
        <time>2020-07-05T14:11:33Z</time>
      </trkpt>
      <trkpt lat="51.226697915717" lon="4.539498822469">
        <ele>3.8</ele>
        <time>2020-07-05T14:11:44Z</time>
      </trkpt>
      <trkpt lat="51.22692229918" lon="4.53867815064">
        <ele>4.4</ele>
        <time>2020-07-05T14:11:54Z</time>
      </trkpt>
      <trkpt lat="51.227105108419" lon="4.538205243842">
        <ele>4.4</ele>
        <time>2020-07-05T14:12:00Z</time>
      </trkpt>
      <trkpt lat="51.227320271792" lon="4.537732337044">
        <ele>4.6</ele>
        <time>2020-07-05T14:12:06Z</time>
      </trkpt>
      <trkpt lat="51.227367880984" lon="4.537589760925">
        <ele>4.6</ele>
        <time>2020-07-05T14:12:08Z</time>
      </trkpt>
      <trkpt lat="51.227419010574" lon="4.537465960262">
        <ele>4.4</ele>
        <time>2020-07-05T14:12:10Z</time>
      </trkpt>
      <trkpt lat="51.227459076056" lon="4.537321875401">
        <ele>3.2</ele>
        <time>2020-07-05T14:12:12Z</time>
      </trkpt>
      <trkpt lat="51.227543817065" lon="4.537004788124">
        <ele>2.2</ele>
        <time>2020-07-05T14:12:16Z</time>
      </trkpt>
      <trkpt lat="51.227893090838" lon="4.536408751215">
        <ele>1</ele>
        <time>2020-07-05T14:12:24Z</time>
      </trkpt>
      <trkpt lat="51.228005073022" lon="4.536328452613">
        <ele>0.8</ele>
        <time>2020-07-05T14:12:26Z</time>
      </trkpt>
      <trkpt lat="51.228124598916" lon="4.536278161213">
        <ele>0.4</ele>
        <time>2020-07-05T14:12:28Z</time>
      </trkpt>
      <trkpt lat="51.228211770676" lon="4.536169699427">
        <ele>0</ele>
        <time>2020-07-05T14:12:30Z</time>
      </trkpt>
      <trkpt lat="51.228229791761" lon="4.536006922929">
        <ele>0</ele>
        <time>2020-07-05T14:12:32Z</time>
      </trkpt>
      <trkpt lat="51.228238928032" lon="4.53583249559">
        <ele>0</ele>
        <time>2020-07-05T14:12:34Z</time>
      </trkpt>
      <trkpt lat="51.228256781479" lon="4.535649686351">
        <ele>0</ele>
        <time>2020-07-05T14:12:36Z</time>
      </trkpt>
      <trkpt lat="51.228281424265" lon="4.534891711134">
        <ele>0</ele>
        <time>2020-07-05T14:12:45Z</time>
      </trkpt>
      <trkpt lat="51.228328782" lon="4.534681157806">
        <ele>0</ele>
        <time>2020-07-05T14:12:48Z</time>
      </trkpt>
      <trkpt lat="51.228604295053" lon="4.533876243949">
        <ele>0</ele>
        <time>2020-07-05T14:12:58Z</time>
      </trkpt>
      <trkpt lat="51.228850052361" lon="4.533071749187">
        <ele>0</ele>
        <time>2020-07-05T14:13:07Z</time>
      </trkpt>
      <trkpt lat="51.229087930683" lon="4.532292986858">
        <ele>0</ele>
        <time>2020-07-05T14:13:16Z</time>
      </trkpt>
      <trkpt lat="51.229142915947" lon="4.532123923935">
        <ele>0</ele>
        <time>2020-07-05T14:13:18Z</time>
      </trkpt>
      <trkpt lat="51.229291107939" lon="4.531825528295">
        <ele>0</ele>
        <time>2020-07-05T14:13:22Z</time>
      </trkpt>
      <trkpt lat="51.229573913245" lon="4.531019860067">
        <ele>0</ele>
        <time>2020-07-05T14:13:33Z</time>
      </trkpt>
      <trkpt lat="51.229779437433" lon="4.530340255615">
        <ele>0</ele>
        <time>2020-07-05T14:13:42Z</time>
      </trkpt>
      <trkpt lat="51.230049753708" lon="4.529597283999">
        <ele>0</ele>
        <time>2020-07-05T14:13:52Z</time>
      </trkpt>
      <trkpt lat="51.230327278417" lon="4.528776528351">
        <ele>0</ele>
        <time>2020-07-05T14:14:02Z</time>
      </trkpt>
      <trkpt lat="51.230505226154" lon="4.52826112532">
        <ele>0</ele>
        <time>2020-07-05T14:14:08Z</time>
      </trkpt>
      <trkpt lat="51.230817116653" lon="4.527825098882">
        <ele>0</ele>
        <time>2020-07-05T14:14:15Z</time>
      </trkpt>
      <trkpt lat="51.230880483817" lon="4.527690737025">
        <ele>0</ele>
        <time>2020-07-05T14:14:17Z</time>
      </trkpt>
      <trkpt lat="51.23111660194" lon="4.526917171474">
        <ele>0</ele>
        <time>2020-07-05T14:14:27Z</time>
      </trkpt>
      <trkpt lat="51.231359760859" lon="4.526113514902">
        <ele>0</ele>
        <time>2020-07-05T14:14:37Z</time>
      </trkpt>
      <trkpt lat="51.231614989714" lon="4.525318994601">
        <ele>0</ele>
        <time>2020-07-05T14:14:49Z</time>
      </trkpt>
      <trkpt lat="51.231711465383" lon="4.525030489603">
        <ele>0</ele>
        <time>2020-07-05T14:14:54Z</time>
      </trkpt>
      <trkpt lat="51.23196065927" lon="4.524237058949">
        <ele>0</ele>
        <time>2020-07-05T14:15:05Z</time>
      </trkpt>
      <trkpt lat="51.232200046334" lon="4.523467181434">
        <ele>0</ele>
        <time>2020-07-05T14:15:16Z</time>
      </trkpt>
      <trkpt lat="51.232287301913" lon="4.523182783567">
        <ele>0</ele>
        <time>2020-07-05T14:15:20Z</time>
      </trkpt>
      <trkpt lat="51.232355865855" lon="4.522972062601">
        <ele>0.2</ele>
        <time>2020-07-05T14:15:23Z</time>
      </trkpt>
      <trkpt lat="51.232432476421" lon="4.522723706904">
        <ele>0</ele>
        <time>2020-07-05T14:15:27Z</time>
      </trkpt>
      <trkpt lat="51.232682089403" lon="4.521952404466">
        <ele>0.4</ele>
        <time>2020-07-05T14:15:39Z</time>
      </trkpt>
      <trkpt lat="51.23294217976" lon="4.521125194755">
        <ele>0.4</ele>
        <time>2020-07-05T14:15:50Z</time>
      </trkpt>
      <trkpt lat="51.233114930719" lon="4.52056235017">
        <ele>0.6</ele>
        <time>2020-07-05T14:15:58Z</time>
      </trkpt>
      <trkpt lat="51.233202353936" lon="4.520298404139">
        <ele>0.6</ele>
        <time>2020-07-05T14:16:02Z</time>
      </trkpt>
      <trkpt lat="51.233448865615" lon="4.519528694262">
        <ele>0.4</ele>
        <time>2020-07-05T14:16:13Z</time>
      </trkpt>
      <trkpt lat="51.233501587766" lon="4.519324259721">
        <ele>0.4</ele>
        <time>2020-07-05T14:16:16Z</time>
      </trkpt>
      <trkpt lat="51.23366972868" lon="4.518470479387">
        <ele>0.4</ele>
        <time>2020-07-05T14:16:27Z</time>
      </trkpt>
      <trkpt lat="51.233752122757" lon="4.518023891755">
        <ele>0.4</ele>
        <time>2020-07-05T14:16:33Z</time>
      </trkpt>
      <trkpt lat="51.233828565685" lon="4.517687777565">
        <ele>0.4</ele>
        <time>2020-07-05T14:16:39Z</time>
      </trkpt>
      <trkpt lat="51.234148838084" lon="4.515563133553">
        <ele>6</ele>
        <time>2020-07-05T14:18:51Z</time>
      </trkpt>
      <trkpt lat="51.233993772934" lon="4.514681273854">
        <ele>4.6</ele>
        <time>2020-07-05T14:19:04Z</time>
      </trkpt>
      <trkpt lat="51.23388430532" lon="4.514027485654">
        <ele>4.6</ele>
        <time>2020-07-05T14:19:12Z</time>
      </trkpt>
      <trkpt lat="51.233716332044" lon="4.513100615152">
        <ele>1.4</ele>
        <time>2020-07-05T14:19:21Z</time>
      </trkpt>
      <trkpt lat="51.233588340431" lon="4.512410868601">
        <ele>0</ele>
        <time>2020-07-05T14:19:27Z</time>
      </trkpt>
      <trkpt lat="51.233443836475" lon="4.511498666424">
        <ele>0</ele>
        <time>2020-07-05T14:19:35Z</time>
      </trkpt>
      <trkpt lat="51.233304780754" lon="4.510665673202">
        <ele>0</ele>
        <time>2020-07-05T14:19:43Z</time>
      </trkpt>
      <trkpt lat="51.233150469975" lon="4.509781969485">
        <ele>0</ele>
        <time>2020-07-05T14:19:52Z</time>
      </trkpt>
      <trkpt lat="51.233108895751" lon="4.509490111727">
        <ele>0</ele>
        <time>2020-07-05T14:19:55Z</time>
      </trkpt>
      <trkpt lat="51.233117780565" lon="4.509197164322">
        <ele>0</ele>
        <time>2020-07-05T14:19:58Z</time>
      </trkpt>
      <trkpt lat="51.23309640672" lon="4.509005637907">
        <ele>0</ele>
        <time>2020-07-05T14:20:00Z</time>
      </trkpt>
      <trkpt lat="51.232953662963" lon="4.508281441747">
        <ele>0</ele>
        <time>2020-07-05T14:20:08Z</time>
      </trkpt>
      <trkpt lat="51.232882500632" lon="4.508023195408">
        <ele>0</ele>
        <time>2020-07-05T14:20:11Z</time>
      </trkpt>
      <trkpt lat="51.232695081348" lon="4.507177042603">
        <ele>0</ele>
        <time>2020-07-05T14:20:21Z</time>
      </trkpt>
      <trkpt lat="51.232572454151" lon="4.506326698848">
        <ele>0</ele>
        <time>2020-07-05T14:20:32Z</time>
      </trkpt>
      <trkpt lat="51.232432141145" lon="4.505412987929">
        <ele>0</ele>
        <time>2020-07-05T14:20:43Z</time>
      </trkpt>
      <trkpt lat="51.232243213119" lon="4.504542946709">
        <ele>0</ele>
        <time>2020-07-05T14:20:54Z</time>
      </trkpt>
      <trkpt lat="51.232114131859" lon="4.503891840717">
        <ele>0</ele>
        <time>2020-07-05T14:21:03Z</time>
      </trkpt>
      <trkpt lat="51.231960156356" lon="4.503211565713">
        <ele>0</ele>
        <time>2020-07-05T14:21:15Z</time>
      </trkpt>
      <trkpt lat="51.231953450836" lon="4.503067061757">
        <ele>0</ele>
        <time>2020-07-05T14:21:17Z</time>
      </trkpt>
      <trkpt lat="51.232008519919" lon="4.502645033092">
        <ele>0</ele>
        <time>2020-07-05T14:21:23Z</time>
      </trkpt>
      <trkpt lat="51.232311693242" lon="4.501912874127">
        <ele>0</ele>
        <time>2020-07-05T14:21:34Z</time>
      </trkpt>
      <trkpt lat="51.232515624869" lon="4.501467376142">
        <ele>0</ele>
        <time>2020-07-05T14:21:40Z</time>
      </trkpt>
      <trkpt lat="51.232874705465" lon="4.50077100789">
        <ele>0</ele>
        <time>2020-07-05T14:21:51Z</time>
      </trkpt>
      <trkpt lat="51.233235378622" lon="4.500080087873">
        <ele>0</ele>
        <time>2020-07-05T14:22:01Z</time>
      </trkpt>
      <trkpt lat="51.233619185823" lon="4.499409368235">
        <ele>0</ele>
        <time>2020-07-05T14:22:12Z</time>
      </trkpt>
      <trkpt lat="51.233958652773" lon="4.498704282807">
        <ele>0</ele>
        <time>2020-07-05T14:22:23Z</time>
      </trkpt>
      <trkpt lat="51.234238775871" lon="4.497865422255">
        <ele>0</ele>
        <time>2020-07-05T14:22:33Z</time>
      </trkpt>
      <trkpt lat="51.234315889351" lon="4.497598039645">
        <ele>0</ele>
        <time>2020-07-05T14:22:36Z</time>
      </trkpt>
      <trkpt lat="51.234544212307" lon="4.496765968432">
        <ele>0</ele>
        <time>2020-07-05T14:22:45Z</time>
      </trkpt>
      <trkpt lat="51.234690979376" lon="4.496231035574">
        <ele>0</ele>
        <time>2020-07-05T14:22:52Z</time>
      </trkpt>
      <trkpt lat="51.23484068011" lon="4.495784867037">
        <ele>0</ele>
        <time>2020-07-05T14:23:00Z</time>
      </trkpt>
      <trkpt lat="51.235102865942" lon="4.494968721434">
        <ele>0</ele>
        <time>2020-07-05T14:23:10Z</time>
      </trkpt>
      <trkpt lat="51.235304031542" lon="4.494213176968">
        <ele>0</ele>
        <time>2020-07-05T14:23:20Z</time>
      </trkpt>
      <trkpt lat="51.235379971556" lon="4.493884355031">
        <ele>0</ele>
        <time>2020-07-05T14:23:25Z</time>
      </trkpt>
      <trkpt lat="51.235400255754" lon="4.493750831364">
        <ele>0</ele>
        <time>2020-07-05T14:23:27Z</time>
      </trkpt>
      <trkpt lat="51.23542992768" lon="4.493632646574">
        <ele>0</ele>
        <time>2020-07-05T14:23:29Z</time>
      </trkpt>
      <trkpt lat="51.23582722974" lon="4.492431687942">
        <ele>0.2</ele>
        <time>2020-07-05T14:23:49Z</time>
      </trkpt>
      <trkpt lat="51.235922364305" lon="4.492031955131">
        <ele>0.8</ele>
        <time>2020-07-05T14:23:55Z</time>
      </trkpt>
      <trkpt lat="51.236364677168" lon="4.489546135048">
        <ele>3.2</ele>
        <time>2020-07-05T14:24:42Z</time>
      </trkpt>
      <trkpt lat="51.236383871719" lon="4.488630328654">
        <ele>1.2</ele>
        <time>2020-07-05T14:24:54Z</time>
      </trkpt>
      <trkpt lat="51.236383955538" lon="4.488337800344">
        <ele>0.2</ele>
        <time>2020-07-05T14:24:58Z</time>
      </trkpt>
      <trkpt lat="51.236364006616" lon="4.488186758506">
        <ele>0</ele>
        <time>2020-07-05T14:25:00Z</time>
      </trkpt>
      <trkpt lat="51.236342968047" lon="4.488033453555">
        <ele>0</ele>
        <time>2020-07-05T14:25:02Z</time>
      </trkpt>
      <trkpt lat="51.236322516211" lon="4.487092250004">
        <ele>0</ele>
        <time>2020-07-05T14:25:13Z</time>
      </trkpt>
      <trkpt lat="51.236292676647" lon="4.486201673129">
        <ele>0.2</ele>
        <time>2020-07-05T14:25:24Z</time>
      </trkpt>
      <trkpt lat="51.236303573117" lon="4.485597086682">
        <ele>0</ele>
        <time>2020-07-05T14:25:32Z</time>
      </trkpt>
      <trkpt lat="51.236331652482" lon="4.485328279149">
        <ele>0</ele>
        <time>2020-07-05T14:25:36Z</time>
      </trkpt>
      <trkpt lat="51.236335256699" lon="4.484414987325">
        <ele>0</ele>
        <time>2020-07-05T14:25:47Z</time>
      </trkpt>
      <trkpt lat="51.236308266981" lon="4.483554836747">
        <ele>0</ele>
        <time>2020-07-05T14:25:57Z</time>
      </trkpt>
      <trkpt lat="51.236295275036" lon="4.482660823293">
        <ele>0</ele>
        <time>2020-07-05T14:26:07Z</time>
      </trkpt>
      <trkpt lat="51.236283708014" lon="4.482286655277">
        <ele>0</ele>
        <time>2020-07-05T14:26:11Z</time>
      </trkpt>
      <trkpt lat="51.236309440447" lon="4.481412842202">
        <ele>0</ele>
        <time>2020-07-05T14:26:20Z</time>
      </trkpt>
      <trkpt lat="51.236352942508" lon="4.48053374853">
        <ele>0</ele>
        <time>2020-07-05T14:26:30Z</time>
      </trkpt>
      <trkpt lat="51.236375657457" lon="4.479591371513">
        <ele>0</ele>
        <time>2020-07-05T14:26:41Z</time>
      </trkpt>
      <trkpt lat="51.236376914742" lon="4.479092648463">
        <ele>0</ele>
        <time>2020-07-05T14:26:47Z</time>
      </trkpt>
      <trkpt lat="51.236315559234" lon="4.478165191228">
        <ele>0.2</ele>
        <time>2020-07-05T14:27:00Z</time>
      </trkpt>
      <trkpt lat="51.236232410786" lon="4.477576530391">
        <ele>0.2</ele>
        <time>2020-07-05T14:27:08Z</time>
      </trkpt>
      <trkpt lat="51.23602504258" lon="4.476716463632">
        <ele>0</ele>
        <time>2020-07-05T14:27:22Z</time>
      </trkpt>
      <trkpt lat="51.235819266935" lon="4.475904760436">
        <ele>0</ele>
        <time>2020-07-05T14:27:34Z</time>
      </trkpt>
      <trkpt lat="51.235646599795" lon="4.475119963139">
        <ele>0</ele>
        <time>2020-07-05T14:27:45Z</time>
      </trkpt>
      <trkpt lat="51.235407212731" lon="4.474630041084">
        <ele>0</ele>
        <time>2020-07-05T14:27:57Z</time>
      </trkpt>
      <trkpt lat="51.234726434813" lon="4.473154826684">
        <ele>0</ele>
        <time>2020-07-05T14:28:32Z</time>
      </trkpt>
      <trkpt lat="51.234563071582" lon="4.472838661416">
        <ele>0</ele>
        <time>2020-07-05T14:28:39Z</time>
      </trkpt>
      <trkpt lat="51.234235842206" lon="4.472091582669">
        <ele>0</ele>
        <time>2020-07-05T14:28:49Z</time>
      </trkpt>
      <trkpt lat="51.23389268722" lon="4.471369230527">
        <ele>0</ele>
        <time>2020-07-05T14:28:58Z</time>
      </trkpt>
      <trkpt lat="51.233681966254" lon="4.47090546">
        <ele>0</ele>
        <time>2020-07-05T14:29:05Z</time>
      </trkpt>
      <trkpt lat="51.233482057939" lon="4.470475887625">
        <ele>0</ele>
        <time>2020-07-05T14:29:12Z</time>
      </trkpt>
      <trkpt lat="51.233398574215" lon="4.470333395325">
        <ele>0</ele>
        <time>2020-07-05T14:29:15Z</time>
      </trkpt>
      <trkpt lat="51.233333949766" lon="4.47014689805">
        <ele>0</ele>
        <time>2020-07-05T14:29:18Z</time>
      </trkpt>
      <trkpt lat="51.232989872771" lon="4.46944030388">
        <ele>0</ele>
        <time>2020-07-05T14:29:28Z</time>
      </trkpt>
      <trkpt lat="51.2329555908" lon="4.469374254508">
        <ele>0</ele>
        <time>2020-07-05T14:29:29Z</time>
      </trkpt>
      <trkpt lat="51.232902281916" lon="4.469243161592">
        <ele>0</ele>
        <time>2020-07-05T14:29:31Z</time>
      </trkpt>
      <trkpt lat="51.232824330246" lon="4.469076864696">
        <ele>0</ele>
        <time>2020-07-05T14:29:34Z</time>
      </trkpt>
      <trkpt lat="51.232611010891" lon="4.468591971781">
        <ele>0</ele>
        <time>2020-07-05T14:29:42Z</time>
      </trkpt>
      <trkpt lat="51.23248117526" lon="4.468295001064">
        <ele>0.2</ele>
        <time>2020-07-05T14:29:47Z</time>
      </trkpt>
      <trkpt lat="51.232256959435" lon="4.467782028784">
        <ele>1.8</ele>
        <time>2020-07-05T14:29:57Z</time>
      </trkpt>
    </trkseg>
  </trk>
</gpx>